Wetterdaten: aktuell Freitag, 18.10.2019 11:01
Datum Zeit Temp. A. Feuchte A. Luftdruck Regen Wind Richtung Richtung Taupunkt Windchill
18.10.2019 11:01 8,9 C 97 % 1017,8 hPa 0,0 l/m 3,1 km/h (1 Bft) SO 128 8,4 C 8,9 C
18.10.2019 11:00 8,9 C 97 % 1017,8 hPa 0,0 l/m 4,8 km/h (1 Bft) O-SO 121 8,4 C 8,9 C
18.10.2019 10:59 8,9 C 97 % 1017,8 hPa 0,0 l/m 0,0 km/h (0 Bft) O-SO 115 8,4 C 8,9 C
18.10.2019 10:58 8,8 C 97 % 1017,7 hPa 0,0 l/m 0,0 km/h (0 Bft) O-SO 115 8,4 C 8,8 C
18.10.2019 10:57 8,8 C 97 % 1017,9 hPa 0,0 l/m 0,0 km/h (0 Bft) O-SO 115 8,4 C 8,8 C
18.10.2019 10:56 8,8 C 97 % 1017,9 hPa 0,0 l/m 0,0 km/h (0 Bft) O-SO 115 8,4 C 8,8 C
18.10.2019 10:55 8,8 C 97 % 1017,9 hPa 0,0 l/m 0,0 km/h (0 Bft) SO 140 8,4 C 8,8 C
18.10.2019 10:54 8,7 C 97 % 1018,0 hPa 0,0 l/m 0,0 km/h (0 Bft) SO 140 8,3 C 8,7 C
18.10.2019 10:53 8,7 C 97 % 1018,0 hPa 0,0 l/m 0,0 km/h (0 Bft) SO 140 8,3 C 8,7 C
18.10.2019 10:52 8,7 C 97 % 1017,9 hPa 0,0 l/m 0,0 km/h (0 Bft) SO 139 8,3 C 8,7 C
18.10.2019 10:51 8,7 C 97 % 1017,9 hPa 0,0 l/m 1,7 km/h (1 Bft) SO 132 8,3 C 8,7 C
18.10.2019 10:50 8,7 C 97 % 1017,9 hPa 0,0 l/m 0,0 km/h (0 Bft) O-SO 120 8,3 C 8,7 C
18.10.2019 10:49 8,7 C 97 % 1017,9 hPa 0,0 l/m 0,0 km/h (0 Bft) SO 143 8,3 C 8,7 C
18.10.2019 10:48 8,7 C 97 % 1018,1 hPa 0,0 l/m 1,7 km/h (1 Bft) SO 126 8,3 C 8,7 C
18.10.2019 10:47 8,6 C 97 % 1018,1 hPa 0,0 l/m 0,0 km/h (0 Bft) O 88 8,2 C 8,6 C
18.10.2019 10:46 8,6 C 97 % 1018,1 hPa 0,0 l/m 0,0 km/h (0 Bft) O 89 8,2 C 8,6 C
18.10.2019 10:45 8,6 C 97 % 1018,1 hPa 0,0 l/m 0,0 km/h (0 Bft) O 89 8,2 C 8,6 C
18.10.2019 10:44 8,6 C 97 % 1018,1 hPa 0,0 l/m 0,0 km/h (0 Bft) O-SO 105 8,2 C 8,6 C
18.10.2019 10:43 8,6 C 97 % 1018,1 hPa 0,0 l/m 0,0 km/h (0 Bft) O 81 8,2 C 8,6 C
18.10.2019 10:42 8,6 C 97 % 1018,1 hPa 0,0 l/m 0,0 km/h (0 Bft) O 81 8,2 C 8,6 C
18.10.2019 10:41 8,7 C 97 % 1018,1 hPa 0,0 l/m 0,0 km/h (0 Bft) O-NO 77 8,3 C 8,7 C
18.10.2019 10:40 8,7 C 97 % 1018,1 hPa 0,0 l/m 0,0 km/h (0 Bft) O 92 8,3 C 8,7 C
18.10.2019 10:39 8,8 C 97 % 1018,1 hPa 0,0 l/m 0,0 km/h (0 Bft) O 93 8,4 C 8,8 C
18.10.2019 10:38 8,8 C 97 % 1018,1 hPa 0,0 l/m 0,0 km/h (0 Bft) O 84 8,4 C 8,8 C
18.10.2019 10:37 8,7 C 97 % 1018,1 hPa 0,0 l/m 0,0 km/h (0 Bft) O 85 8,3 C 8,7 C
18.10.2019 10:36 8,6 C 97 % 1018,1 hPa 0,0 l/m 0,0 km/h (0 Bft) O 85 8,2 C 8,6 C
18.10.2019 10:35 8,6 C 97 % 1018,1 hPa 0,0 l/m 0,0 km/h (0 Bft) O 84 8,2 C 8,6 C
18.10.2019 10:34 8,5 C 97 % 1018,1 hPa 0,0 l/m 0,0 km/h (0 Bft) O 85 8,1 C 8,5 C
18.10.2019 10:33 8,5 C 97 % 1018,1 hPa 0,0 l/m 0,0 km/h (0 Bft) O 85 8,1 C 8,5 C
18.10.2019 10:32 8,5 C 97 % 1018,1 hPa 0,0 l/m 1,7 km/h (1 Bft) O 85 8,1 C 8,5 C
18.10.2019 10:31 8,5 C 97 % 1018,1 hPa 0,0 l/m 0,0 km/h (0 Bft) O 85 8,1 C 8,5 C
18.10.2019 10:30 8,5 C 97 % 1018,1 hPa 0,0 l/m 0,0 km/h (0 Bft) O 85 8,1 C 8,5 C
18.10.2019 10:28 8,5 C 97 % 1018,1 hPa 0,0 l/m 0,0 km/h (0 Bft) O-SO 119 8,1 C 8,5 C
18.10.2019 10:27 8,5 C 97 % 1018,1 hPa 0,0 l/m 0,0 km/h (0 Bft) O-SO 119 8,1 C 8,5 C
18.10.2019 10:26 8,5 C 97 % 1018,1 hPa 0,0 l/m 0,0 km/h (0 Bft) SW 223 8,1 C 8,5 C
18.10.2019 10:25 8,4 C 97 % 1018,2 hPa 0,0 l/m 0,0 km/h (0 Bft) SW 223 8,0 C 8,4 C
18.10.2019 10:24 8,4 C 97 % 1018,1 hPa 0,0 l/m 0,0 km/h (0 Bft) SW 223 8,0 C 8,4 C
18.10.2019 10:23 8,4 C 97 % 1018,2 hPa 0,0 l/m 0,0 km/h (0 Bft) SW 223 8,0 C 8,4 C
18.10.2019 10:22 8,4 C 97 % 1018,2 hPa 0,0 l/m 0,0 km/h (0 Bft) S-SW 206 8,0 C 8,4 C
18.10.2019 10:21 8,3 C 97 % 1018,1 hPa 0,0 l/m 0,0 km/h (0 Bft) S-SW 206 7,9 C 8,3 C
18.10.2019 10:20 8,3 C 97 % 1018,1 hPa 0,0 l/m 0,0 km/h (0 Bft) S-SW 206 7,9 C 8,3 C
18.10.2019 10:19 8,4 C 97 % 1018,1 hPa 0,0 l/m 1,7 km/h (1 Bft) S-SW 205 8,0 C 8,4 C
18.10.2019 10:18 8,4 C 97 % 1018,1 hPa 0,0 l/m 1,7 km/h (1 Bft) SW 232 8,0 C 8,4 C
18.10.2019 10:17 8,3 C 97 % 1018,1 hPa 0,0 l/m 1,7 km/h (1 Bft) S-SW 193 7,9 C 8,3 C
18.10.2019 10:16 8,3 C 97 % 1018,0 hPa 0,0 l/m 0,0 km/h (0 Bft) S-SW 202 7,9 C 8,3 C
18.10.2019 10:15 8,3 C 97 % 1018,1 hPa 0,0 l/m 0,0 km/h (0 Bft) S-SW 202 7,9 C 8,3 C
18.10.2019 10:14 8,2 C 97 % 1018,1 hPa 0,0 l/m 0,0 km/h (0 Bft) S-SW 202 7,8 C 8,2 C
18.10.2019 10:13 8,1 C 97 % 1018,1 hPa 0,0 l/m 0,0 km/h (0 Bft) S-SW 202 7,7 C 8,1 C
18.10.2019 10:12 8,1 C 97 % 1018,1 hPa 0,0 l/m 0,0 km/h (0 Bft) S-SW 201 7,7 C 8,1 C
18.10.2019 10:11 8,1 C 97 % 1018,0 hPa 0,0 l/m 1,7 km/h (1 Bft) SW 229 7,7 C 8,1 C
18.10.2019 10:10 8,1 C 97 % 1018,0 hPa 0,0 l/m 1,7 km/h (1 Bft) SO 130 7,7 C 8,1 C
18.10.2019 10:09 8,1 C 97 % 1018,0 hPa 0,0 l/m 0,0 km/h (0 Bft) O-SO 118 7,7 C 8,1 C
18.10.2019 10:08 8,1 C 97 % 1018,0 hPa 0,0 l/m 1,7 km/h (1 Bft) O-SO 109 7,7 C 8,1 C
18.10.2019 10:07 8,1 C 97 % 1017,9 hPa 0,0 l/m 3,1 km/h (1 Bft) O-NO 65 7,7 C 8,1 C
18.10.2019 10:06 8,1 C 97 % 1018,1 hPa 0,0 l/m 0,0 km/h (0 Bft) O 81 7,7 C 8,1 C
18.10.2019 10:05 8,1 C 97 % 1017,9 hPa 0,0 l/m 0,0 km/h (0 Bft) O 89 7,7 C 8,1 C
18.10.2019 10:04 8,1 C 97 % 1018,1 hPa 0,0 l/m 0,0 km/h (0 Bft) O 90 7,7 C 8,1 C
18.10.2019 10:03 8,1 C 97 % 1018,0 hPa 0,0 l/m 3,1 km/h (1 Bft) O 91 7,7 C 8,1 C
18.10.2019 10:02 8,1 C 97 % 1017,9 hPa 0,0 l/m 0,0 km/h (0 Bft) O-SO 102 7,7 C 8,1 C
18.10.2019 10:01 8,1 C 97 % 1017,9 hPa 0,0 l/m 0,0 km/h (0 Bft) O-SO 103 7,7 C 8,1 C
18.10.2019 10:00 8,1 C 97 % 1018,0 hPa 0,0 l/m 0,0 km/h (0 Bft) SO 138 7,7 C 8,1 C
18.10.2019 09:59 8,1 C 97 % 1018,0 hPa 0,0 l/m 0,0 km/h (0 Bft) SO 139 7,7 C 8,1 C
18.10.2019 09:58 8,1 C 97 % 1017,9 hPa 0,0 l/m 0,0 km/h (0 Bft) SO 139 7,7 C 8,1 C
18.10.2019 09:57 8,1 C 97 % 1018,0 hPa 0,0 l/m 3,1 km/h (1 Bft) SO 136 7,7 C 8,1 C
18.10.2019 09:56 8,1 C 97 % 1018,1 hPa 0,0 l/m 4,8 km/h (1 Bft) SO 137 7,7 C 8,1 C
18.10.2019 09:55 8,1 C 97 % 1018,1 hPa 0,0 l/m 0,0 km/h (0 Bft) O-SO 121 7,7 C 8,1 C
18.10.2019 09:54 8,0 C 97 % 1018,0 hPa 0,0 l/m 3,1 km/h (1 Bft) S-SO 153 7,6 C 8,0 C
18.10.2019 09:53 8,1 C 97 % 1018,1 hPa 0,0 l/m 4,8 km/h (1 Bft) SO 135 7,7 C 8,1 C
18.10.2019 09:52 8,1 C 97 % 1018,1 hPa 0,0 l/m 0,0 km/h (0 Bft) SO 130 7,7 C 8,1 C
18.10.2019 09:51 8,1 C 97 % 1018,1 hPa 0,0 l/m 0,0 km/h (0 Bft) SO 130 7,7 C 8,1 C
18.10.2019 09:50 8,1 C 97 % 1018,1 hPa 0,0 l/m 0,0 km/h (0 Bft) SO 126 7,7 C 8,1 C
18.10.2019 09:49 8,1 C 97 % 1018,1 hPa 0,0 l/m 0,0 km/h (0 Bft) O-SO 118 7,7 C 8,1 C
18.10.2019 09:48 8,1 C 97 % 1018,1 hPa 0,0 l/m 1,7 km/h (1 Bft) S 177 7,7 C 8,1 C
18.10.2019 09:47 8,1 C 97 % 1018,1 hPa 0,0 l/m 4,8 km/h (1 Bft) O 101 7,7 C 8,1 C
18.10.2019 09:46 8,1 C 97 % 1018,1 hPa 0,0 l/m 0,0 km/h (0 Bft) SO 142 7,7 C 8,1 C
18.10.2019 09:45 8,1 C 97 % 1018,1 hPa 0,0 l/m 0,0 km/h (0 Bft) SO 138 7,7 C 8,1 C
18.10.2019 09:44 8,1 C 97 % 1018,1 hPa 0,0 l/m 0,0 km/h (0 Bft) O-SO 123 7,7 C 8,1 C
18.10.2019 09:43 8,1 C 97 % 1018,1 hPa 0,0 l/m 0,0 km/h (0 Bft) O-SO 109 7,7 C 8,1 C
18.10.2019 09:42 8,1 C 97 % 1018,1 hPa 0,0 l/m 0,0 km/h (0 Bft) O-SO 109 7,7 C 8,1 C
18.10.2019 09:41 8,1 C 97 % 1018,1 hPa 0,0 l/m 0,0 km/h (0 Bft) O-SO 109 7,7 C 8,1 C
18.10.2019 09:40 8,1 C 97 % 1018,0 hPa 0,0 l/m 0,0 km/h (0 Bft) O-SO 109 7,7 C 8,1 C
18.10.2019 09:39 8,1 C 97 % 1018,1 hPa 0,0 l/m 0,0 km/h (0 Bft) O-SO 113 7,7 C 8,1 C
18.10.2019 09:38 8,1 C 97 % 1018,1 hPa 0,0 l/m 0,0 km/h (0 Bft) S 175 7,7 C 8,1 C
18.10.2019 09:37 8,1 C 97 % 1018,1 hPa 0,0 l/m 0,0 km/h (0 Bft) S 175 7,7 C 8,1 C
18.10.2019 09:36 8,1 C 97 % 1018,1 hPa 0,0 l/m 0,0 km/h (0 Bft) S 175 7,7 C 8,1 C
18.10.2019 09:35 8,1 C 97 % 1018,1 hPa 0,0 l/m 0,0 km/h (0 Bft) S 175 7,7 C 8,1 C
18.10.2019 09:34 8,1 C 97 % 1018,1 hPa 0,0 l/m 0,0 km/h (0 Bft) S 175 7,7 C 8,1 C
18.10.2019 09:33 8,1 C 97 % 1018,2 hPa 0,0 l/m 0,0 km/h (0 Bft) S 175 7,7 C 8,1 C
18.10.2019 09:32 8,1 C 97 % 1018,1 hPa 0,0 l/m 0,0 km/h (0 Bft) S 175 7,7 C 8,1 C
18.10.2019 09:31 8,1 C 97 % 1018,2 hPa 0,0 l/m 0,0 km/h (0 Bft) S 175 7,7 C 8,1 C
18.10.2019 09:30 8,1 C 97 % 1018,2 hPa 0,0 l/m 0,0 km/h (0 Bft) S 175 7,7 C 8,1 C
18.10.2019 09:29 8,1 C 97 % 1018,2 hPa 0,0 l/m 0,0 km/h (0 Bft) S 175 7,7 C 8,1 C
18.10.2019 09:28 8,1 C 97 % 1018,2 hPa 0,0 l/m 0,0 km/h (0 Bft) S 175 7,7 C 8,1 C
18.10.2019 09:27 8,1 C 97 % 1018,2 hPa 0,0 l/m 0,0 km/h (0 Bft) S 176 7,7 C 8,1 C
18.10.2019 09:26 8,1 C 97 % 1018,1 hPa 0,0 l/m 0,0 km/h (0 Bft) S 176 7,7 C 8,1 C
18.10.2019 09:25 8,1 C 97 % 1018,1 hPa 0,0 l/m 0,0 km/h (0 Bft) S 173 7,7 C 8,1 C
18.10.2019 09:24 8,1 C 97 % 1018,1 hPa 0,0 l/m 0,0 km/h (0 Bft) S 172 7,7 C 8,1 C
18.10.2019 09:23 8,1 C 97 % 1018,1 hPa 0,0 l/m 0,0 km/h (0 Bft) S 172 7,7 C 8,1 C
18.10.2019 09:22 8,1 C 97 % 1018,2 hPa 0,0 l/m 0,0 km/h (0 Bft) S 172 7,7 C 8,1 C
18.10.2019 09:21 8,1 C 97 % 1018,1 hPa 0,0 l/m 0,0 km/h (0 Bft) S 172 7,7 C 8,1 C
18.10.2019 09:20 8,1 C 97 % 1018,1 hPa 0,0 l/m 0,0 km/h (0 Bft) S 172 7,7 C 8,1 C
18.10.2019 09:19 8,1 C 97 % 1018,1 hPa 0,0 l/m 0,0 km/h (0 Bft) S 186 7,7 C 8,1 C
18.10.2019 09:18 8,1 C 97 % 1018,1 hPa 0,0 l/m 0,0 km/h (0 Bft) S 186 7,7 C 8,1 C
18.10.2019 09:17 8,2 C 97 % 1018,0 hPa 0,0 l/m 0,0 km/h (0 Bft) S 186 7,8 C 8,2 C
18.10.2019 09:16 8,1 C 97 % 1017,9 hPa 0,0 l/m 0,0 km/h (0 Bft) S 186 7,7 C 8,1 C
18.10.2019 09:15 8,1 C 97 % 1018,1 hPa 0,0 l/m 0,0 km/h (0 Bft) S 186 7,7 C 8,1 C
18.10.2019 09:14 8,1 C 97 % 1018,1 hPa 0,0 l/m 0,0 km/h (0 Bft) S 186 7,7 C 8,1 C
18.10.2019 09:13 8,1 C 97 % 1018,0 hPa 0,0 l/m 0,0 km/h (0 Bft) S 186 7,7 C 8,1 C
18.10.2019 09:12 8,0 C 97 % 1018,1 hPa 0,0 l/m 0,0 km/h (0 Bft) S 186 7,6 C 8,0 C
18.10.2019 09:11 8,0 C 97 % 1018,2 hPa 0,0 l/m 0,0 km/h (0 Bft) S 186 7,6 C 8,0 C
18.10.2019 09:10 8,0 C 97 % 1018,1 hPa 0,0 l/m 0,0 km/h (0 Bft) S 186 7,6 C 8,0 C
18.10.2019 09:09 8,0 C 97 % 1018,1 hPa 0,0 l/m 0,0 km/h (0 Bft) S 186 7,6 C 8,0 C
18.10.2019 09:08 8,0 C 97 % 1018,1 hPa 0,0 l/m 0,0 km/h (0 Bft) S 185 7,6 C 8,0 C
18.10.2019 09:07 8,0 C 97 % 1018,1 hPa 0,0 l/m 0,0 km/h (0 Bft) S-SO 152 7,6 C 8,0 C
18.10.2019 09:06 8,0 C 97 % 1018,1 hPa 0,0 l/m 0,0 km/h (0 Bft) S-SO 152 7,6 C 8,0 C
18.10.2019 09:05 8,0 C 97 % 1018,1 hPa 0,0 l/m 0,0 km/h (0 Bft) S-SO 152 7,6 C 8,0 C
18.10.2019 09:04 8,0 C 97 % 1018,0 hPa 0,0 l/m 0,0 km/h (0 Bft) S-SO 152 7,6 C 8,0 C
18.10.2019 09:03 8,0 C 97 % 1018,0 hPa 0,0 l/m 0,0 km/h (0 Bft) S-SO 152 7,6 C 8,0 C
18.10.2019 09:02 8,0 C 97 % 1018,1 hPa 0,0 l/m 0,0 km/h (0 Bft) S-SO 152 7,6 C 8,0 C
18.10.2019 09:01 8,0 C 97 % 1018,0 hPa 0,0 l/m 0,0 km/h (0 Bft) S-SO 152 7,6 C 8,0 C
18.10.2019 09:00 8,0 C 97 % 1018,1 hPa 0,0 l/m 0,0 km/h (0 Bft) S-SO 152 7,6 C 8,0 C
18.10.2019 08:59 8,0 C 97 % 1018,0 hPa 0,0 l/m 0,0 km/h (0 Bft) S-SO 152 7,6 C 8,0 C
18.10.2019 08:58 7,9 C 97 % 1018,0 hPa 0,0 l/m 0,0 km/h (0 Bft) S-SO 152 7,5 C 7,9 C
18.10.2019 08:57 7,9 C 97 % 1017,9 hPa 0,0 l/m 0,0 km/h (0 Bft) S-SO 152 7,5 C 7,9 C
18.10.2019 08:56 7,9 C 97 % 1018,0 hPa 0,0 l/m 0,0 km/h (0 Bft) S-SO 152 7,5 C 7,9 C
18.10.2019 08:55 7,9 C 97 % 1017,9 hPa 0,0 l/m 0,0 km/h (0 Bft) S-SO 152 7,5 C 7,9 C
18.10.2019 08:54 7,8 C 97 % 1017,9 hPa 0,0 l/m 0,0 km/h (0 Bft) S-SO 152 7,4 C 7,8 C
18.10.2019 08:53 7,9 C 97 % 1018,0 hPa 0,0 l/m 0,0 km/h (0 Bft) S-SO 152 7,5 C 7,9 C
18.10.2019 08:52 7,8 C 97 % 1018,1 hPa 0,0 l/m 0,0 km/h (0 Bft) S-SO 152 7,4 C 7,8 C
18.10.2019 08:51 7,8 C 97 % 1017,9 hPa 0,0 l/m 0,0 km/h (0 Bft) S-SO 151 7,4 C 7,8 C
18.10.2019 08:50 7,8 C 97 % 1017,9 hPa 0,0 l/m 0,0 km/h (0 Bft) S-SO 151 7,4 C 7,8 C
18.10.2019 08:49 7,8 C 97 % 1018,0 hPa 0,0 l/m 0,0 km/h (0 Bft) S-SO 151 7,4 C 7,8 C
18.10.2019 08:48 7,8 C 97 % 1018,0 hPa 0,0 l/m 0,0 km/h (0 Bft) S-SO 151 7,4 C 7,8 C
18.10.2019 08:47 7,7 C 97 % 1017,9 hPa 0,0 l/m 0,0 km/h (0 Bft) S-SO 148 7,3 C 7,7 C
18.10.2019 08:46 7,6 C 97 % 1017,8 hPa 0,0 l/m 0,0 km/h (0 Bft) S-SO 148 7,2 C 7,6 C
18.10.2019 08:45 7,6 C 97 % 1017,8 hPa 0,0 l/m 0,0 km/h (0 Bft) S-SO 148 7,2 C 7,6 C
18.10.2019 08:44 7,6 C 97 % 1017,9 hPa 0,0 l/m 0,0 km/h (0 Bft) S-SO 148 7,2 C 7,6 C
18.10.2019 08:43 7,6 C 97 % 1017,9 hPa 0,0 l/m 0,0 km/h (0 Bft) S-SO 149 7,2 C 7,6 C
18.10.2019 08:42 7,6 C 97 % 1017,8 hPa 0,0 l/m 0,0 km/h (0 Bft) S-SO 149 7,2 C 7,6 C
18.10.2019 08:41 7,6 C 97 % 1017,7 hPa 0,0 l/m 0,0 km/h (0 Bft) S-SO 148 7,2 C 7,6 C
18.10.2019 08:40 7,6 C 97 % 1017,8 hPa 0,0 l/m 0,0 km/h (0 Bft) S-SO 149 7,2 C 7,6 C
18.10.2019 08:39 7,6 C 97 % 1017,7 hPa 0,0 l/m 0,0 km/h (0 Bft) S-SO 148 7,2 C 7,6 C
18.10.2019 08:38 7,5 C 97 % 1017,7 hPa 0,0 l/m 0,0 km/h (0 Bft) S-SO 148 7,1 C 7,5 C
18.10.2019 08:37 7,5 C 97 % 1017,7 hPa 0,0 l/m 0,0 km/h (0 Bft) S-SO 148 7,1 C 7,5 C
18.10.2019 08:36 7,5 C 97 % 1017,7 hPa 0,0 l/m 0,0 km/h (0 Bft) S-SO 148 7,1 C 7,5 C
18.10.2019 08:35 7,5 C 97 % 1017,7 hPa 0,0 l/m 0,0 km/h (0 Bft) S-SW 197 7,1 C 7,5 C
18.10.2019 08:34 7,5 C 97 % 1017,7 hPa 0,0 l/m 0,0 km/h (0 Bft) S-SW 211 7,1 C 7,5 C
18.10.2019 08:33 7,5 C 97 % 1017,7 hPa 0,0 l/m 0,0 km/h (0 Bft) S-SW 213 7,1 C 7,5 C
18.10.2019 08:32 7,5 C 97 % 1017,6 hPa 0,0 l/m 0,0 km/h (0 Bft) S-SW 203 7,1 C 7,5 C
18.10.2019 08:31 7,4 C 97 % 1017,6 hPa 0,0 l/m 0,0 km/h (0 Bft) S 179 7,0 C 7,4 C
18.10.2019 08:30 7,4 C 97 % 1017,5 hPa 0,0 l/m 0,0 km/h (0 Bft) SO 136 7,0 C 7,4 C
18.10.2019 08:29 7,4 C 97 % 1017,6 hPa 0,0 l/m 0,0 km/h (0 Bft) SO 128 7,0 C 7,4 C
18.10.2019 08:28 7,4 C 97 % 1017,6 hPa 0,0 l/m 0,0 km/h (0 Bft) SO 128 7,0 C 7,4 C
18.10.2019 08:27 7,4 C 97 % 1017,7 hPa 0,0 l/m 0,0 km/h (0 Bft) SO 128 7,0 C 7,4 C
18.10.2019 08:26 7,4 C 97 % 1017,5 hPa 0,0 l/m 0,0 km/h (0 Bft) SO 128 7,0 C 7,4 C
18.10.2019 08:25 7,4 C 97 % 1017,6 hPa 0,0 l/m 0,0 km/h (0 Bft) SO 128 7,0 C 7,4 C
18.10.2019 08:24 7,4 C 97 % 1017,6 hPa 0,0 l/m 0,0 km/h (0 Bft) SO 128 7,0 C 7,4 C
18.10.2019 08:23 7,3 C 97 % 1017,4 hPa 0,0 l/m 0,0 km/h (0 Bft) SO 128 6,9 C 7,3 C
18.10.2019 08:22 7,3 C 97 % 1017,4 hPa 0,0 l/m 0,0 km/h (0 Bft) SO 126 6,9 C 7,3 C
18.10.2019 08:21 7,3 C 97 % 1017,4 hPa 0,0 l/m 0,0 km/h (0 Bft) SO 126 6,9 C 7,3 C
18.10.2019 08:20 7,3 C 97 % 1017,4 hPa 0,0 l/m 0,0 km/h (0 Bft) SO 126 6,9 C 7,3 C
18.10.2019 08:19 7,3 C 97 % 1017,4 hPa 0,0 l/m 0,0 km/h (0 Bft) S-SO 153 6,9 C 7,3 C
18.10.2019 08:18 7,2 C 97 % 1017,4 hPa 0,0 l/m 0,0 km/h (0 Bft) S-SO 153 6,8 C 7,2 C
18.10.2019 08:17 7,2 C 97 % 1017,4 hPa 0,0 l/m 0,0 km/h (0 Bft) SO 146 6,8 C 7,2 C
18.10.2019 08:16 7,2 C 97 % 1017,4 hPa 0,0 l/m 0,0 km/h (0 Bft) SO 132 6,8 C 7,2 C
18.10.2019 08:15 7,1 C 97 % 1017,3 hPa 0,0 l/m 0,0 km/h (0 Bft) SO 132 6,7 C 7,1 C
18.10.2019 08:14 7,1 C 97 % 1017,4 hPa 0,0 l/m 0,0 km/h (0 Bft) SO 132 6,7 C 7,1 C
18.10.2019 08:13 7,1 C 97 % 1017,4 hPa 0,0 l/m 0,0 km/h (0 Bft) SO 132 6,7 C 7,1 C
18.10.2019 08:12 7,1 C 97 % 1017,4 hPa 0,0 l/m 0,0 km/h (0 Bft) SO 132 6,7 C 7,1 C
18.10.2019 08:11 7,1 C 97 % 1017,3 hPa 0,0 l/m 0,0 km/h (0 Bft) SO 132 6,7 C 7,1 C
18.10.2019 08:10 7,1 C 97 % 1017,3 hPa 0,0 l/m 0,0 km/h (0 Bft) SO 132 6,7 C 7,1 C
18.10.2019 08:09 7,1 C 97 % 1017,3 hPa 0,0 l/m 0,0 km/h (0 Bft) SO 132 6,7 C 7,1 C
18.10.2019 08:08 7,1 C 97 % 1017,4 hPa 0,0 l/m 0,0 km/h (0 Bft) SO 132 6,7 C 7,1 C
18.10.2019 08:07 7,1 C 97 % 1017,4 hPa 0,0 l/m 0,0 km/h (0 Bft) SO 132 6,7 C 7,1 C
18.10.2019 08:06 7,1 C 97 % 1017,4 hPa 0,0 l/m 0,0 km/h (0 Bft) SO 132 6,7 C 7,1 C
18.10.2019 08:05 7,0 C 97 % 1017,4 hPa 0,0 l/m 0,0 km/h (0 Bft) O-SO 109 6,6 C 7,0 C
18.10.2019 08:04 7,0 C 97 % 1017,4 hPa 0,0 l/m 0,0 km/h (0 Bft) O-SO 109 6,6 C 7,0 C
18.10.2019 08:03 7,0 C 97 % 1017,3 hPa 0,0 l/m 0,0 km/h (0 Bft) O-SO 108 6,6 C 7,0 C
18.10.2019 08:02 7,0 C 97 % 1017,4 hPa 0,0 l/m 0,0 km/h (0 Bft) O-SO 109 6,6 C 7,0 C
18.10.2019 08:01 7,0 C 97 % 1017,4 hPa 0,0 l/m 0,0 km/h (0 Bft) O-SO 108 6,6 C 7,0 C
18.10.2019 08:00 7,0 C 97 % 1017,4 hPa 0,0 l/m 0,0 km/h (0 Bft) O-SO 109 6,6 C 7,0 C
18.10.2019 07:59 7,0 C 97 % 1017,4 hPa 0,0 l/m 0,0 km/h (0 Bft) O-SO 109 6,6 C 7,0 C
18.10.2019 07:58 7,0 C 97 % 1017,4 hPa 0,0 l/m 0,0 km/h (0 Bft) O-SO 108 6,6 C 7,0 C
18.10.2019 07:57 6,9 C 97 % 1017,5 hPa 0,0 l/m 0,0 km/h (0 Bft) O-SO 108 6,5 C 6,9 C
18.10.2019 07:56 6,9 C 97 % 1017,5 hPa 0,0 l/m 0,0 km/h (0 Bft) O-SO 108 6,5 C 6,9 C
18.10.2019 07:55 6,9 C 97 % 1017,5 hPa 0,0 l/m 0,0 km/h (0 Bft) O-SO 109 6,5 C 6,9 C
18.10.2019 07:54 6,9 C 97 % 1017,5 hPa 0,0 l/m 0,0 km/h (0 Bft) O-SO 109 6,5 C 6,9 C
18.10.2019 07:53 6,8 C 97 % 1017,5 hPa 0,0 l/m 0,0 km/h (0 Bft) O-SO 108 6,4 C 6,8 C
18.10.2019 07:52 6,8 C 97 % 1017,4 hPa 0,0 l/m 0,0 km/h (0 Bft) O-SO 109 6,4 C 6,8 C
18.10.2019 07:51 6,8 C 97 % 1017,4 hPa 0,0 l/m 0,0 km/h (0 Bft) O-SO 108 6,4 C 6,8 C
18.10.2019 07:50 6,8 C 97 % 1017,5 hPa 0,0 l/m 0,0 km/h (0 Bft) O-SO 108 6,4 C 6,8 C
18.10.2019 07:49 6,8 C 97 % 1017,4 hPa 0,0 l/m 0,0 km/h (0 Bft) O-SO 109 6,4 C 6,8 C
18.10.2019 07:48 6,8 C 97 % 1017,5 hPa 0,0 l/m 0,0 km/h (0 Bft) O-SO 108 6,4 C 6,8 C
18.10.2019 07:47 6,8 C 97 % 1017,4 hPa 0,0 l/m 0,0 km/h (0 Bft) O-SO 108 6,4 C 6,8 C
18.10.2019 07:46 6,8 C 97 % 1017,4 hPa 0,0 l/m 0,0 km/h (0 Bft) O-SO 108 6,4 C 6,8 C
18.10.2019 07:45 6,8 C 97 % 1017,4 hPa 0,0 l/m 0,0 km/h (0 Bft) O-SO 109 6,4 C 6,8 C
18.10.2019 07:44 6,7 C 96 % 1017,4 hPa 0,0 l/m 0,0 km/h (0 Bft) O-SO 109 6,1 C 6,7 C
18.10.2019 07:43 6,7 C 96 % 1017,4 hPa 0,0 l/m 0,0 km/h (0 Bft) O-SO 108 6,1 C 6,7 C
18.10.2019 07:42 6,7 C 96 % 1017,4 hPa 0,0 l/m 0,0 km/h (0 Bft) O-SO 111 6,1 C 6,7 C
18.10.2019 07:41 6,7 C 96 % 1017,4 hPa 0,0 l/m 0,0 km/h (0 Bft) O-SO 122 6,1 C 6,7 C
18.10.2019 07:40 6,7 C 96 % 1017,4 hPa 0,0 l/m 0,0 km/h (0 Bft) O-SO 122 6,1 C 6,7 C
18.10.2019 07:39 6,6 C 96 % 1017,4 hPa 0,0 l/m 0,0 km/h (0 Bft) O-SO 122 6,0 C 6,6 C
18.10.2019 07:38 6,6 C 96 % 1017,4 hPa 0,0 l/m 0,0 km/h (0 Bft) O-SO 122 6,0 C 6,6 C
18.10.2019 07:37 6,6 C 96 % 1017,4 hPa 0,0 l/m 0,0 km/h (0 Bft) O-SO 122 6,0 C 6,6 C
18.10.2019 07:36 6,6 C 96 % 1017,5 hPa 0,0 l/m 0,0 km/h (0 Bft) O-SO 122 6,0 C 6,6 C
18.10.2019 07:35 6,6 C 96 % 1017,5 hPa 0,0 l/m 0,0 km/h (0 Bft) O-SO 122 6,0 C 6,6 C
18.10.2019 07:34 6,6 C 96 % 1017,4 hPa 0,0 l/m 0,0 km/h (0 Bft) O-SO 122 6,0 C 6,6 C
18.10.2019 07:33 6,6 C 96 % 1017,5 hPa 0,0 l/m 0,0 km/h (0 Bft) O-SO 122 6,0 C 6,6 C
18.10.2019 07:32 6,6 C 96 % 1017,4 hPa 0,0 l/m 0,0 km/h (0 Bft) O-SO 122 6,0 C 6,6 C
18.10.2019 07:31 6,6 C 96 % 1017,4 hPa 0,0 l/m 0,0 km/h (0 Bft) O-SO 122 6,0 C 6,6 C
18.10.2019 07:30 6,6 C 96 % 1017,5 hPa 0,0 l/m 0,0 km/h (0 Bft) O-SO 122 6,0 C 6,6 C
18.10.2019 07:29 6,6 C 96 % 1017,4 hPa 0,0 l/m 0,0 km/h (0 Bft) O-SO 122 6,0 C 6,6 C
18.10.2019 07:28 6,6 C 96 % 1017,5 hPa 0,0 l/m 0,0 km/h (0 Bft) O-SO 121 6,0 C 6,6 C
18.10.2019 07:27 6,6 C 96 % 1017,5 hPa 0,0 l/m 0,0 km/h (0 Bft) O-SO 121 6,0 C 6,6 C
18.10.2019 07:26 6,6 C 96 % 1017,4 hPa 0,0 l/m 0,0 km/h (0 Bft) O-SO 119 6,0 C 6,6 C
18.10.2019 07:25 6,6 C 96 % 1017,4 hPa 0,0 l/m 0,0 km/h (0 Bft) O 97 6,0 C 6,6 C
18.10.2019 07:24 6,6 C 96 % 1017,4 hPa 0,0 l/m 0,0 km/h (0 Bft) O 98 6,0 C 6,6 C
18.10.2019 07:23 6,6 C 96 % 1017,4 hPa 0,0 l/m 0,0 km/h (0 Bft) O 98 6,0 C 6,6 C
18.10.2019 07:22 6,6 C 96 % 1017,4 hPa 0,0 l/m 0,0 km/h (0 Bft) O 101 6,0 C 6,6 C
18.10.2019 07:21 6,6 C 96 % 1017,4 hPa 0,0 l/m 0,0 km/h (0 Bft) O 101 6,0 C 6,6 C
18.10.2019 07:20 6,6 C 96 % 1017,4 hPa 0,0 l/m 0,0 km/h (0 Bft) O 101 6,0 C 6,6 C
18.10.2019 07:19 6,6 C 96 % 1017,4 hPa 0,0 l/m 0,0 km/h (0 Bft) O 101 6,0 C 6,6 C
18.10.2019 07:18 6,6 C 96 % 1017,4 hPa 0,0 l/m 0,0 km/h (0 Bft) O 101 6,0 C 6,6 C
18.10.2019 07:17 6,6 C 96 % 1017,4 hPa 0,0 l/m 0,0 km/h (0 Bft) O 101 6,0 C 6,6 C
18.10.2019 07:16 6,6 C 96 % 1017,4 hPa 0,0 l/m 0,0 km/h (0 Bft) O 101 6,0 C 6,6 C
18.10.2019 07:15 6,6 C 96 % 1017,4 hPa 0,0 l/m 0,0 km/h (0 Bft) O 101 6,0 C 6,6 C
18.10.2019 07:14 6,6 C 96 % 1017,3 hPa 0,0 l/m 0,0 km/h (0 Bft) O 101 6,0 C 6,6 C
18.10.2019 07:13 6,6 C 96 % 1017,4 hPa 0,0 l/m 0,0 km/h (0 Bft) O 101 6,0 C 6,6 C
18.10.2019 07:12 6,6 C 96 % 1017,3 hPa 0,0 l/m 0,0 km/h (0 Bft) O 101 6,0 C 6,6 C
18.10.2019 07:11 6,6 C 96 % 1017,3 hPa 0,0 l/m 0,0 km/h (0 Bft) O 101 6,0 C 6,6 C
18.10.2019 07:10 6,6 C 96 % 1017,3 hPa 0,0 l/m 0,0 km/h (0 Bft) O 101 6,0 C 6,6 C
18.10.2019 07:09 6,6 C 96 % 1017,3 hPa 0,0 l/m 0,0 km/h (0 Bft) O 94 6,0 C 6,6 C
18.10.2019 07:08 6,6 C 96 % 1017,2 hPa 0,0 l/m 0,0 km/h (0 Bft) O-NO 71 6,0 C 6,6 C
18.10.2019 07:07 6,6 C 96 % 1017,2 hPa 0,0 l/m 0,0 km/h (0 Bft) O-NO 65 6,0 C 6,6 C
18.10.2019 07:06 6,5 C 96 % 1017,2 hPa 0,0 l/m 0,0 km/h (0 Bft) O-NO 65 5,9 C 6,5 C
18.10.2019 07:05 6,5 C 96 % 1017,3 hPa 0,0 l/m 0,0 km/h (0 Bft) O-NO 65 5,9 C 6,5 C
18.10.2019 07:04 6,5 C 96 % 1017,2 hPa 0,0 l/m 0,0 km/h (0 Bft) O-NO 65 5,9 C 6,5 C
18.10.2019 07:03 6,5 C 96 % 1017,3 hPa 0,0 l/m 0,0 km/h (0 Bft) O-NO 65 5,9 C 6,5 C
18.10.2019 07:02 6,5 C 96 % 1017,2 hPa 0,0 l/m 0,0 km/h (0 Bft) O-NO 66 5,9 C 6,5 C
18.10.2019 07:01 6,5 C 96 % 1017,2 hPa 0,0 l/m 0,0 km/h (0 Bft) O-NO 65 5,9 C 6,5 C
18.10.2019 07:00 6,5 C 96 % 1017,3 hPa 0,0 l/m 0,0 km/h (0 Bft) O-NO 65 5,9 C 6,5 C
18.10.2019 06:59 6,4 C 96 % 1017,3 hPa 0,0 l/m 0,0 km/h (0 Bft) O-NO 65 5,8 C 6,4 C
18.10.2019 06:58 6,4 C 96 % 1017,2 hPa 0,0 l/m 0,0 km/h (0 Bft) O-NO 65 5,8 C 6,4 C
18.10.2019 06:57 6,4 C 96 % 1017,2 hPa 0,0 l/m 0,0 km/h (0 Bft) N-NO 12 5,8 C 6,4 C
18.10.2019 06:56 6,4 C 96 % 1017,2 hPa 0,0 l/m 0,0 km/h (0 Bft) N 9 5,8 C 6,4 C
18.10.2019 06:55 6,4 C 96 % 1017,3 hPa 0,0 l/m 0,0 km/h (0 Bft) N 9 5,8 C 6,4 C
18.10.2019 06:54 6,4 C 96 % 1017,3 hPa 0,0 l/m 0,0 km/h (0 Bft) N 9 5,8 C 6,4 C
18.10.2019 06:53 6,4 C 96 % 1017,3 hPa 0,0 l/m 0,0 km/h (0 Bft) N 9 5,8 C 6,4 C
18.10.2019 06:52 6,4 C 96 % 1017,2 hPa 0,0 l/m 0,0 km/h (0 Bft) N 9 5,8 C 6,4 C
18.10.2019 06:51 6,4 C 96 % 1017,2 hPa 0,0 l/m 0,0 km/h (0 Bft) N 9 5,8 C 6,4 C
18.10.2019 06:50 6,4 C 96 % 1017,3 hPa 0,0 l/m 0,0 km/h (0 Bft) N 9 5,8 C 6,4 C
18.10.2019 06:49 6,4 C 96 % 1017,3 hPa 0,0 l/m 0,0 km/h (0 Bft) N 9 5,8 C 6,4 C
18.10.2019 06:48 6,4 C 96 % 1017,2 hPa 0,0 l/m 0,0 km/h (0 Bft) N 9 5,8 C 6,4 C
18.10.2019 06:47 6,4 C 96 % 1017,2 hPa 0,0 l/m 0,0 km/h (0 Bft) N 9 5,8 C 6,4 C
18.10.2019 06:46 6,4 C 96 % 1017,2 hPa 0,0 l/m 0,0 km/h (0 Bft) N-NW 347 5,8 C 6,4 C
18.10.2019 06:45 6,4 C 96 % 1017,3 hPa 0,0 l/m 0,0 km/h (0 Bft) N-NW 347 5,8 C 6,4 C
18.10.2019 06:44 6,4 C 96 % 1017,3 hPa 0,0 l/m 0,0 km/h (0 Bft) N-NW 347 5,8 C 6,4 C
18.10.2019 06:43 6,4 C 96 % 1017,3 hPa 0,0 l/m 0,0 km/h (0 Bft) N-NW 348 5,8 C 6,4 C
18.10.2019 06:42 6,4 C 96 % 1017,2 hPa 0,0 l/m 0,0 km/h (0 Bft) N-NW 341 5,8 C 6,4 C
18.10.2019 06:41 6,4 C 96 % 1017,2 hPa 0,0 l/m 0,0 km/h (0 Bft) N-NW 344 5,8 C 6,4 C
18.10.2019 06:40 6,4 C 96 % 1017,3 hPa 0,0 l/m 0,0 km/h (0 Bft) N-NW 345 5,8 C 6,4 C
18.10.2019 06:39 6,4 C 96 % 1017,3 hPa 0,0 l/m 0,0 km/h (0 Bft) N-NW 344 5,8 C 6,4 C
18.10.2019 06:38 6,4 C 96 % 1017,1 hPa 0,0 l/m 0,0 km/h (0 Bft) N-NW 346 5,8 C 6,4 C
18.10.2019 06:37 6,4 C 96 % 1017,2 hPa 0,0 l/m 0,0 km/h (0 Bft) N-NW 347 5,8 C 6,4 C
18.10.2019 06:36 6,4 C 96 % 1017,2 hPa 0,0 l/m 0,0 km/h (0 Bft) NW 317 5,8 C 6,4 C
18.10.2019 06:35 6,4 C 96 % 1017,1 hPa 0,0 l/m 0,0 km/h (0 Bft) NW 315 5,8 C 6,4 C
18.10.2019 06:34 6,4 C 96 % 1017,1 hPa 0,0 l/m 0,0 km/h (0 Bft) NW 315 5,8 C 6,4 C
18.10.2019 06:33 6,3 C 96 % 1017,2 hPa 0,0 l/m 0,0 km/h (0 Bft) NW 306 5,7 C 6,3 C
18.10.2019 06:32 6,3 C 96 % 1017,1 hPa 0,0 l/m 0,0 km/h (0 Bft) NW 306 5,7 C 6,3 C
18.10.2019 06:31 6,3 C 96 % 1017,2 hPa 0,0 l/m 0,0 km/h (0 Bft) NW 306 5,7 C 6,3 C
18.10.2019 06:30 6,3 C 96 % 1017,2 hPa 0,0 l/m 0,0 km/h (0 Bft) NW 306 5,7 C 6,3 C
18.10.2019 06:29 6,3 C 96 % 1017,2 hPa 0,0 l/m 0,0 km/h (0 Bft) NW 306 5,7 C 6,3 C
18.10.2019 06:28 6,2 C 96 % 1017,2 hPa 0,0 l/m 0,0 km/h (0 Bft) NW 306 5,6 C 6,2 C
18.10.2019 06:27 6,2 C 96 % 1017,2 hPa 0,0 l/m 0,0 km/h (0 Bft) NW 306 5,6 C 6,2 C
18.10.2019 06:26 6,1 C 96 % 1017,2 hPa 0,0 l/m 0,0 km/h (0 Bft) NW 306 5,5 C 6,1 C
18.10.2019 06:25 6,1 C 96 % 1017,2 hPa 0,0 l/m 0,0 km/h (0 Bft) NW 306 5,5 C 6,1 C
18.10.2019 06:24 6,1 C 96 % 1017,2 hPa 0,0 l/m 0,0 km/h (0 Bft) NW 306 5,5 C 6,1 C
18.10.2019 06:23 6,1 C 96 % 1017,2 hPa 0,0 l/m 0,0 km/h (0 Bft) NW 306 5,5 C 6,1 C
18.10.2019 06:22 6,1 C 96 % 1017,2 hPa 0,0 l/m 0,0 km/h (0 Bft) NW 306 5,5 C 6,1 C
18.10.2019 06:21 6,1 C 96 % 1017,1 hPa 0,0 l/m 0,0 km/h (0 Bft) NW 306 5,5 C 6,1 C
18.10.2019 06:20 6,1 C 96 % 1017,2 hPa 0,0 l/m 0,0 km/h (0 Bft) NW 306 5,5 C 6,1 C
18.10.2019 06:19 6,1 C 96 % 1017,2 hPa 0,0 l/m 0,0 km/h (0 Bft) NW 306 5,5 C 6,1 C
18.10.2019 06:18 6,1 C 96 % 1017,2 hPa 0,0 l/m 0,0 km/h (0 Bft) NW 306 5,5 C 6,1 C
18.10.2019 06:17 6,0 C 96 % 1017,2 hPa 0,0 l/m 0,0 km/h (0 Bft) NW 306 5,4 C 6,0 C
18.10.2019 06:16 6,0 C 96 % 1017,2 hPa 0,0 l/m 0,0 km/h (0 Bft) NW 306 5,4 C 6,0 C
18.10.2019 06:15 6,0 C 96 % 1017,2 hPa 0,0 l/m 0,0 km/h (0 Bft) NW 306 5,4 C 6,0 C
18.10.2019 06:14 6,0 C 96 % 1017,3 hPa 0,0 l/m 0,0 km/h (0 Bft) NW 306 5,4 C 6,0 C
18.10.2019 06:13 5,9 C 96 % 1017,2 hPa 0,0 l/m 0,0 km/h (0 Bft) NW 306 5,3 C 5,9 C
18.10.2019 06:12 5,9 C 96 % 1017,1 hPa 0,0 l/m 0,0 km/h (0 Bft) NW 306 5,3 C 5,9 C
18.10.2019 06:11 5,9 C 96 % 1017,1 hPa 0,0 l/m 0,0 km/h (0 Bft) NW 306 5,3 C 5,9 C
18.10.2019 06:10 5,9 C 96 % 1017,2 hPa 0,0 l/m 0,0 km/h (0 Bft) NW 306 5,3 C 5,9 C
18.10.2019 06:09 5,8 C 96 % 1017,2 hPa 0,0 l/m 0,0 km/h (0 Bft) NW 306 5,2 C 5,8 C
18.10.2019 06:08 5,8 C 96 % 1017,3 hPa 0,0 l/m 0,0 km/h (0 Bft) NW 306 5,2 C 5,8 C
18.10.2019 06:07 5,8 C 96 % 1017,4 hPa 0,0 l/m 0,0 km/h (0 Bft) NW 311 5,2 C 5,8 C
18.10.2019 06:06 5,8 C 96 % 1017,4 hPa 0,0 l/m 0,0 km/h (0 Bft) N-NO 32 5,2 C 5,8 C
18.10.2019 06:05 5,8 C 96 % 1017,3 hPa 0,0 l/m 0,0 km/h (0 Bft) N-NO 32 5,2 C 5,8 C
18.10.2019 06:04 5,8 C 96 % 1017,3 hPa 0,0 l/m 0,0 km/h (0 Bft) N-NO 32 5,2 C 5,8 C
18.10.2019 06:03 5,8 C 96 % 1017,3 hPa 0,0 l/m 0,0 km/h (0 Bft) N-NO 32 5,2 C 5,8 C
18.10.2019 06:02 5,8 C 96 % 1017,3 hPa 0,0 l/m 0,0 km/h (0 Bft) N-NO 32 5,2 C 5,8 C
18.10.2019 06:01 5,8 C 96 % 1017,2 hPa 0,0 l/m 0,0 km/h (0 Bft) N-NO 32 5,2 C 5,8 C
18.10.2019 06:00 5,8 C 96 % 1017,2 hPa 0,0 l/m 0,0 km/h (0 Bft) N-NO 32 5,2 C 5,8 C
18.10.2019 05:59 5,8 C 96 % 1017,3 hPa 0,0 l/m 0,0 km/h (0 Bft) N-NO 32 5,2 C 5,8 C
18.10.2019 05:58 5,7 C 96 % 1017,3 hPa 0,0 l/m 0,0 km/h (0 Bft) N-NO 32 5,1 C 5,7 C
18.10.2019 05:57 5,7 C 96 % 1017,3 hPa 0,0 l/m 0,0 km/h (0 Bft) N-NO 32 5,1 C 5,7 C
18.10.2019 05:56 5,7 C 96 % 1017,3 hPa 0,0 l/m 0,0 km/h (0 Bft) N-NO 32 5,1 C 5,7 C
18.10.2019 05:55 5,7 C 96 % 1017,2 hPa 0,0 l/m 0,0 km/h (0 Bft) N-NO 32 5,1 C 5,7 C
18.10.2019 05:54 5,7 C 96 % 1017,2 hPa 0,0 l/m 0,0 km/h (0 Bft) N-NO 32 5,1 C 5,7 C
18.10.2019 05:53 5,7 C 96 % 1017,3 hPa 0,0 l/m 0,0 km/h (0 Bft) N-NO 32 5,1 C 5,7 C
18.10.2019 05:52 5,8 C 96 % 1017,2 hPa 0,0 l/m 0,0 km/h (0 Bft) N-NO 32 5,2 C 5,8 C
18.10.2019 05:51 5,8 C 96 % 1017,2 hPa 0,0 l/m 0,0 km/h (0 Bft) N-NO 32 5,2 C 5,8 C
18.10.2019 05:50 5,9 C 96 % 1017,2 hPa 0,0 l/m 0,0 km/h (0 Bft) N-NO 32 5,3 C 5,9 C
18.10.2019 05:49 5,9 C 96 % 1017,1 hPa 0,0 l/m 0,0 km/h (0 Bft) N-NO 32 5,3 C 5,9 C
18.10.2019 05:48 5,9 C 96 % 1017,2 hPa 0,0 l/m 0,0 km/h (0 Bft) NW 323 5,3 C 5,9 C
18.10.2019 05:47 5,9 C 96 % 1017,2 hPa 0,0 l/m 0,0 km/h (0 Bft) NW 323 5,3 C 5,9 C
18.10.2019 05:46 5,9 C 96 % 1017,1 hPa 0,0 l/m 0,0 km/h (0 Bft) NW 323 5,3 C 5,9 C
18.10.2019 05:45 5,9 C 96 % 1017,3 hPa 0,0 l/m 0,0 km/h (0 Bft) NW 324 5,3 C 5,9 C
18.10.2019 05:44 5,9 C 96 % 1017,2 hPa 0,0 l/m 0,0 km/h (0 Bft) NW 323 5,3 C 5,9 C
18.10.2019 05:43 5,9 C 96 % 1017,2 hPa 0,0 l/m 0,0 km/h (0 Bft) NW 323 5,3 C 5,9 C
18.10.2019 05:42 5,9 C 96 % 1017,2 hPa 0,0 l/m 0,0 km/h (0 Bft) W-NW 302 5,3 C 5,9 C
18.10.2019 05:41 6,0 C 96 % 1017,2 hPa 0,0 l/m 0,0 km/h (0 Bft) W-NW 302 5,4 C 6,0 C
18.10.2019 05:40 6,0 C 96 % 1017,2 hPa 0,0 l/m 0,0 km/h (0 Bft) W-NW 302 5,4 C 6,0 C
18.10.2019 05:39 6,0 C 96 % 1017,2 hPa 0,0 l/m 0,0 km/h (0 Bft) W-NW 302 5,4 C 6,0 C
18.10.2019 05:38 6,0 C 96 % 1017,2 hPa 0,0 l/m 0,0 km/h (0 Bft) W-NW 302 5,4 C 6,0 C
18.10.2019 05:37 6,0 C 96 % 1017,2 hPa 0,0 l/m 0,0 km/h (0 Bft) W-NW 302 5,4 C 6,0 C
18.10.2019 05:36 6,0 C 96 % 1017,2 hPa 0,0 l/m 0,0 km/h (0 Bft) W-NW 302 5,4 C 6,0 C
18.10.2019 05:35 6,0 C 96 % 1017,2 hPa 0,0 l/m 0,0 km/h (0 Bft) W-NW 302 5,4 C 6,0 C
18.10.2019 05:34 6,0 C 96 % 1017,1 hPa 0,0 l/m 0,0 km/h (0 Bft) W-SW 250 5,4 C 6,0 C
18.10.2019 05:33 6,0 C 96 % 1017,2 hPa 0,0 l/m 0,0 km/h (0 Bft) W-SW 250 5,4 C 6,0 C
18.10.2019 05:32 6,0 C 96 % 1017,2 hPa 0,0 l/m 0,0 km/h (0 Bft) W-SW 247 5,4 C 6,0 C
18.10.2019 05:31 6,0 C 96 % 1017,2 hPa 0,0 l/m 0,0 km/h (0 Bft) W-SW 247 5,4 C 6,0 C
18.10.2019 05:30 6,0 C 96 % 1017,2 hPa 0,0 l/m 0,0 km/h (0 Bft) W-SW 247 5,4 C 6,0 C
18.10.2019 05:29 6,0 C 96 % 1017,2 hPa 0,0 l/m 0,0 km/h (0 Bft) W-SW 247 5,4 C 6,0 C
18.10.2019 05:28 6,0 C 96 % 1017,2 hPa 0,0 l/m 0,0 km/h (0 Bft) W-SW 247 5,4 C 6,0 C
18.10.2019 05:27 6,0 C 96 % 1017,2 hPa 0,0 l/m 0,0 km/h (0 Bft) W-SW 247 5,4 C 6,0 C
18.10.2019 05:26 6,0 C 96 % 1017,2 hPa 0,0 l/m 0,0 km/h (0 Bft) W-SW 247 5,4 C 6,0 C
18.10.2019 05:25 6,0 C 96 % 1017,2 hPa 0,0 l/m 0,0 km/h (0 Bft) W-SW 247 5,4 C 6,0 C
18.10.2019 05:24 6,0 C 96 % 1017,2 hPa 0,0 l/m 0,0 km/h (0 Bft) W-SW 247 5,4 C 6,0 C
18.10.2019 05:23 6,0 C 96 % 1017,2 hPa 0,0 l/m 0,0 km/h (0 Bft) W-SW 247 5,4 C 6,0 C
18.10.2019 05:22 6,0 C 96 % 1017,2 hPa 0,0 l/m 0,0 km/h (0 Bft) W-SW 247 5,4 C 6,0 C
18.10.2019 05:21 6,0 C 96 % 1017,2 hPa 0,0 l/m 0,0 km/h (0 Bft) W-SW 247 5,4 C 6,0 C
18.10.2019 05:20 6,0 C 96 % 1017,2 hPa 0,0 l/m 0,0 km/h (0 Bft) W-SW 247 5,4 C 6,0 C
18.10.2019 05:19 6,0 C 96 % 1017,2 hPa 0,0 l/m 0,0 km/h (0 Bft) W-SW 247 5,4 C 6,0 C
18.10.2019 05:18 5,9 C 96 % 1017,2 hPa 0,0 l/m 0,0 km/h (0 Bft) W-SW 247 5,3 C 5,9 C
18.10.2019 05:17 5,9 C 96 % 1017,2 hPa 0,0 l/m 0,0 km/h (0 Bft) W-SW 247 5,3 C 5,9 C
18.10.2019 05:16 5,8 C 96 % 1017,2 hPa 0,0 l/m 0,0 km/h (0 Bft) W-SW 244 5,2 C 5,8 C
18.10.2019 05:15 5,8 C 96 % 1017,2 hPa 0,0 l/m 0,0 km/h (0 Bft) W-SW 244 5,2 C 5,8 C
18.10.2019 05:14 5,8 C 96 % 1017,2 hPa 0,0 l/m 0,0 km/h (0 Bft) W-SW 244 5,2 C 5,8 C
18.10.2019 05:13 5,8 C 96 % 1017,2 hPa 0,0 l/m 0,0 km/h (0 Bft) W-SW 244 5,2 C 5,8 C
18.10.2019 05:12 5,8 C 96 % 1017,2 hPa 0,0 l/m 0,0 km/h (0 Bft) W-SW 244 5,2 C 5,8 C
18.10.2019 05:11 5,8 C 96 % 1017,2 hPa 0,0 l/m 0,0 km/h (0 Bft) W-SW 244 5,2 C 5,8 C
18.10.2019 05:10 5,8 C 96 % 1017,2 hPa 0,0 l/m 0,0 km/h (0 Bft) W-SW 244 5,2 C 5,8 C
18.10.2019 05:09 5,8 C 96 % 1017,1 hPa 0,0 l/m 0,0 km/h (0 Bft) W-SW 244 5,2 C 5,8 C
18.10.2019 05:08 5,9 C 96 % 1017,2 hPa 0,0 l/m 0,0 km/h (0 Bft) W-SW 243 5,3 C 5,9 C
18.10.2019 05:07 5,9 C 96 % 1017,1 hPa 0,0 l/m 0,0 km/h (0 Bft) W-SW 244 5,3 C 5,9 C
18.10.2019 05:06 5,9 C 96 % 1017,0 hPa 0,0 l/m 0,0 km/h (0 Bft) W-SW 243 5,3 C 5,9 C
18.10.2019 05:05 5,9 C 96 % 1017,2 hPa 0,0 l/m 0,0 km/h (0 Bft) W-SW 244 5,3 C 5,9 C
18.10.2019 05:04 6,0 C 96 % 1017,1 hPa 0,0 l/m 0,0 km/h (0 Bft) W-SW 243 5,4 C 6,0 C
18.10.2019 05:03 6,0 C 96 % 1017,1 hPa 0,0 l/m 0,0 km/h (0 Bft) W-SW 243 5,4 C 6,0 C
18.10.2019 05:02 6,0 C 96 % 1017,1 hPa 0,0 l/m 0,0 km/h (0 Bft) W-SW 243 5,4 C 6,0 C
18.10.2019 05:01 6,0 C 96 % 1017,1 hPa 0,0 l/m 0,0 km/h (0 Bft) W-SW 243 5,4 C 6,0 C
18.10.2019 05:00 6,0 C 96 % 1017,1 hPa 0,0 l/m 0,0 km/h (0 Bft) W-SW 244 5,4 C 6,0 C
18.10.2019 04:59 6,0 C 96 % 1017,1 hPa 0,0 l/m 0,0 km/h (0 Bft) W-SW 243 5,4 C 6,0 C
18.10.2019 04:58 6,0 C 96 % 1017,1 hPa 0,0 l/m 0,0 km/h (0 Bft) W-SW 244 5,4 C 6,0 C
18.10.2019 04:57 6,0 C 96 % 1017,1 hPa 0,0 l/m 0,0 km/h (0 Bft) W-SW 244 5,4 C 6,0 C
18.10.2019 04:56 6,1 C 96 % 1017,0 hPa 0,0 l/m 0,0 km/h (0 Bft) W-SW 243 5,5 C 6,1 C
18.10.2019 04:55 6,1 C 96 % 1017,0 hPa 0,2 l/m 0,0 km/h (0 Bft) W-SW 244 5,5 C 6,1 C
18.10.2019 04:54 6,1 C 96 % 1017,0 hPa 0,0 l/m 0,0 km/h (0 Bft) W-SW 243 5,5 C 6,1 C
18.10.2019 04:53 6,1 C 96 % 1017,0 hPa 0,0 l/m 0,0 km/h (0 Bft) W-SW 244 5,5 C 6,1 C
18.10.2019 04:52 6,1 C 96 % 1017,0 hPa 0,0 l/m 0,0 km/h (0 Bft) W-SW 244 5,5 C 6,1 C
18.10.2019 04:51 6,1 C 96 % 1017,0 hPa 0,0 l/m 0,0 km/h (0 Bft) W-SW 243 5,5 C 6,1 C
18.10.2019 04:50 6,1 C 96 % 1017,0 hPa 0,0 l/m 0,0 km/h (0 Bft) W-SW 244 5,5 C 6,1 C
18.10.2019 04:49 6,1 C 96 % 1017,0 hPa 0,0 l/m 0,0 km/h (0 Bft) W-SW 244 5,5 C 6,1 C
18.10.2019 04:48 6,1 C 96 % 1017,0 hPa 0,0 l/m 0,0 km/h (0 Bft) W-SW 244 5,5 C 6,1 C
18.10.2019 04:47 6,1 C 96 % 1016,9 hPa 0,0 l/m 0,0 km/h (0 Bft) W-SW 244 5,5 C 6,1 C
18.10.2019 04:46 6,2 C 96 % 1017,0 hPa 0,0 l/m 0,0 km/h (0 Bft) W-SW 243 5,6 C 6,2 C
18.10.2019 04:45 6,1 C 96 % 1017,0 hPa 0,0 l/m 0,0 km/h (0 Bft) W-SW 243 5,5 C 6,1 C
18.10.2019 04:44 6,1 C 96 % 1016,9 hPa 0,0 l/m 0,0 km/h (0 Bft) W-SW 243 5,5 C 6,1 C
18.10.2019 04:43 6,2 C 96 % 1017,0 hPa 0,0 l/m 0,0 km/h (0 Bft) W-SW 245 5,6 C 6,2 C
18.10.2019 04:42 6,2 C 96 % 1017,0 hPa 0,0 l/m 0,0 km/h (0 Bft) W 264 5,6 C 6,2 C
18.10.2019 04:41 6,2 C 96 % 1016,9 hPa 0,0 l/m 0,0 km/h (0 Bft) W 265 5,6 C 6,2 C
18.10.2019 04:40 6,2 C 96 % 1016,9 hPa 0,0 l/m 0,0 km/h (0 Bft) W 265 5,6 C 6,2 C
18.10.2019 04:39 6,2 C 96 % 1016,9 hPa 0,0 l/m 0,0 km/h (0 Bft) W 263 5,6 C 6,2 C
18.10.2019 04:38 6,3 C 96 % 1016,9 hPa 0,0 l/m 0,0 km/h (0 Bft) W 263 5,7 C 6,3 C
18.10.2019 04:37 6,2 C 96 % 1016,9 hPa 0,0 l/m 0,0 km/h (0 Bft) W 263 5,6 C 6,2 C
18.10.2019 04:36 6,2 C 96 % 1017,0 hPa 0,0 l/m 0,0 km/h (0 Bft) W 263 5,6 C 6,2 C
18.10.2019 04:35 6,2 C 96 % 1016,9 hPa 0,0 l/m 0,0 km/h (0 Bft) W 263 5,6 C 6,2 C
18.10.2019 04:34 6,3 C 96 % 1016,9 hPa 0,0 l/m 0,0 km/h (0 Bft) W 263 5,7 C 6,3 C
18.10.2019 04:33 6,3 C 96 % 1017,0 hPa 0,0 l/m 0,0 km/h (0 Bft) W 259 5,7 C 6,3 C
18.10.2019 04:32 6,3 C 96 % 1016,9 hPa 0,0 l/m 0,0 km/h (0 Bft) W-SW 255 5,7 C 6,3 C
18.10.2019 04:31 6,3 C 96 % 1016,9 hPa 0,0 l/m 0,0 km/h (0 Bft) W-SW 255 5,7 C 6,3 C
18.10.2019 04:30 6,3 C 96 % 1017,0 hPa 0,0 l/m 0,0 km/h (0 Bft) W-SW 255 5,7 C 6,3 C
18.10.2019 04:29 6,3 C 96 % 1017,0 hPa 0,0 l/m 0,0 km/h (0 Bft) W-SW 255 5,7 C 6,3 C
18.10.2019 04:28 6,3 C 96 % 1016,9 hPa 0,0 l/m 0,0 km/h (0 Bft) W-SW 255 5,7 C 6,3 C
18.10.2019 04:27 6,3 C 96 % 1017,0 hPa 0,0 l/m 0,0 km/h (0 Bft) W-SW 255 5,7 C 6,3 C
18.10.2019 04:26 6,3 C 96 % 1016,9 hPa 0,0 l/m 0,0 km/h (0 Bft) W-SW 244 5,7 C 6,3 C
18.10.2019 04:25 6,3 C 96 % 1016,9 hPa 0,0 l/m 0,0 km/h (0 Bft) W-SW 244 5,7 C 6,3 C
18.10.2019 04:24 6,3 C 96 % 1017,0 hPa 0,0 l/m 0,0 km/h (0 Bft) W-SW 243 5,7 C 6,3 C
18.10.2019 04:23 6,3 C 96 % 1017,0 hPa 0,0 l/m 0,0 km/h (0 Bft) W-SW 246 5,7 C 6,3 C
18.10.2019 04:22 6,3 C 96 % 1016,9 hPa 0,0 l/m 0,0 km/h (0 Bft) W-SW 239 5,7 C 6,3 C
18.10.2019 04:21 6,3 C 96 % 1017,0 hPa 0,0 l/m 0,0 km/h (0 Bft) W 267 5,7 C 6,3 C
18.10.2019 04:20 6,3 C 96 % 1017,0 hPa 0,0 l/m 0,0 km/h (0 Bft) W 268 5,7 C 6,3 C
18.10.2019 04:19 6,3 C 96 % 1017,0 hPa 0,0 l/m 0,0 km/h (0 Bft) SW 217 5,7 C 6,3 C
18.10.2019 04:18 6,4 C 95 % 1017,0 hPa 0,0 l/m 0,0 km/h (0 Bft) W-SW 237 5,7 C 6,4 C
18.10.2019 04:17 6,4 C 95 % 1016,9 hPa 0,0 l/m 0,0 km/h (0 Bft) W 263 5,7 C 6,4 C
18.10.2019 04:16 6,4 C 95 % 1017,0 hPa 0,0 l/m 0,0 km/h (0 Bft) W-SW 242 5,7 C 6,4 C
18.10.2019 04:15 6,4 C 95 % 1017,0 hPa 0,0 l/m 0,0 km/h (0 Bft) W 269 5,7 C 6,4 C
18.10.2019 04:14 6,4 C 95 % 1017,0 hPa 0,0 l/m 0,0 km/h (0 Bft) SW 236 5,7 C 6,4 C
18.10.2019 04:13 6,4 C 95 % 1017,0 hPa 0,0 l/m 0,0 km/h (0 Bft) W 267 5,7 C 6,4 C
18.10.2019 04:12 6,4 C 95 % 1016,9 hPa 0,0 l/m 0,0 km/h (0 Bft) W-SW 252 5,7 C 6,4 C
18.10.2019 04:11 6,5 C 95 % 1017,0 hPa 0,0 l/m 0,0 km/h (0 Bft) W-SW 241 5,8 C 6,5 C
18.10.2019 04:10 6,5 C 95 % 1017,0 hPa 0,0 l/m 0,0 km/h (0 Bft) W-SW 253 5,8 C 6,5 C
18.10.2019 04:09 6,5 C 96 % 1017,0 hPa 0,0 l/m 0,0 km/h (0 Bft) W-SW 253 5,9 C 6,5 C
18.10.2019 04:08 6,6 C 96 % 1017,0 hPa 0,0 l/m 0,0 km/h (0 Bft) W-SW 248 6,0 C 6,6 C
18.10.2019 04:07 6,6 C 96 % 1016,9 hPa 0,0 l/m 0,0 km/h (0 Bft) W-SW 247 6,0 C 6,6 C
18.10.2019 04:06 6,6 C 96 % 1017,0 hPa 0,0 l/m 0,0 km/h (0 Bft) W-SW 245 6,0 C 6,6 C
18.10.2019 04:05 6,6 C 96 % 1017,0 hPa 0,0 l/m 0,0 km/h (0 Bft) W-SW 245 6,0 C 6,6 C
18.10.2019 04:04 6,7 C 96 % 1017,0 hPa 0,0 l/m 0,0 km/h (0 Bft) W-SW 248 6,1 C 6,7 C
18.10.2019 04:03 6,7 C 96 % 1017,0 hPa 0,0 l/m 0,0 km/h (0 Bft) W-SW 241 6,1 C 6,7 C
18.10.2019 04:02 6,8 C 96 % 1017,0 hPa 0,0 l/m 0,0 km/h (0 Bft) W-SW 242 6,2 C 6,8 C
18.10.2019 04:01 6,8 C 96 % 1017,0 hPa 0,0 l/m 0,0 km/h (0 Bft) W-SW 241 6,2 C 6,8 C
18.10.2019 04:00 6,8 C 96 % 1017,0 hPa 0,0 l/m 0,0 km/h (0 Bft) W-SW 241 6,2 C 6,8 C
18.10.2019 03:59 6,8 C 96 % 1017,0 hPa 0,0 l/m 0,0 km/h (0 Bft) W-SW 241 6,2 C 6,8 C
18.10.2019 03:58 6,8 C 96 % 1016,9 hPa 0,0 l/m 0,0 km/h (0 Bft) W-SW 241 6,2 C 6,8 C
18.10.2019 03:57 6,8 C 96 % 1017,0 hPa 0,0 l/m 0,0 km/h (0 Bft) W-SW 241 6,2 C 6,8 C
18.10.2019 03:56 6,8 C 96 % 1016,9 hPa 0,0 l/m 0,0 km/h (0 Bft) W-SW 241 6,2 C 6,8 C
18.10.2019 03:55 6,8 C 96 % 1017,0 hPa 0,0 l/m 0,0 km/h (0 Bft) W-SW 241 6,2 C 6,8 C
18.10.2019 03:54 6,8 C 96 % 1016,9 hPa 0,0 l/m 0,0 km/h (0 Bft) W-SW 241 6,2 C 6,8 C
18.10.2019 03:53 6,8 C 96 % 1017,0 hPa 0,0 l/m 0,0 km/h (0 Bft) W-SW 242 6,2 C 6,8 C
18.10.2019 03:52 6,7 C 96 % 1017,0 hPa 0,0 l/m 1,7 km/h (1 Bft) W-SW 243 6,1 C 6,7 C
18.10.2019 03:51 6,7 C 96 % 1016,9 hPa 0,0 l/m 0,0 km/h (0 Bft) W-SW 243 6,1 C 6,7 C
18.10.2019 03:50 6,7 C 96 % 1016,9 hPa 0,0 l/m 0,0 km/h (0 Bft) W-SW 242 6,1 C 6,7 C
18.10.2019 03:49 6,7 C 96 % 1017,0 hPa 0,0 l/m 0,0 km/h (0 Bft) W-SW 243 6,1 C 6,7 C
18.10.2019 03:48 6,7 C 96 % 1017,0 hPa 0,0 l/m 0,0 km/h (0 Bft) W-SW 243 6,1 C 6,7 C
18.10.2019 03:47 6,7 C 95 % 1017,0 hPa 0,0 l/m 0,0 km/h (0 Bft) W-SW 243 6,0 C 6,7 C
18.10.2019 03:46 6,7 C 96 % 1017,0 hPa 0,0 l/m 0,0 km/h (0 Bft) W-SW 243 6,1 C 6,7 C
18.10.2019 03:45 6,7 C 96 % 1017,0 hPa 0,0 l/m 0,0 km/h (0 Bft) W-SW 243 6,1 C 6,7 C
18.10.2019 03:44 6,8 C 96 % 1017,0 hPa 0,0 l/m 0,0 km/h (0 Bft) W-SW 243 6,2 C 6,8 C
18.10.2019 03:43 6,8 C 96 % 1017,0 hPa 0,0 l/m 0,0 km/h (0 Bft) W-SW 243 6,2 C 6,8 C
18.10.2019 03:42 6,8 C 96 % 1017,0 hPa 0,0 l/m 0,0 km/h (0 Bft) W-SW 242 6,2 C 6,8 C
18.10.2019 03:41 6,8 C 96 % 1017,0 hPa 0,0 l/m 0,0 km/h (0 Bft) W-SW 240 6,2 C 6,8 C
18.10.2019 03:40 6,8 C 96 % 1017,0 hPa 0,0 l/m 0,0 km/h (0 Bft) W-SW 252 6,2 C 6,8 C
18.10.2019 03:39 6,8 C 96 % 1017,1 hPa 0,0 l/m 0,0 km/h (0 Bft) W-SW 241 6,2 C 6,8 C
18.10.2019 03:38 6,8 C 96 % 1017,1 hPa 0,0 l/m 0,0 km/h (0 Bft) W-SW 247 6,2 C 6,8 C
18.10.2019 03:37 6,9 C 96 % 1017,1 hPa 0,0 l/m 0,0 km/h (0 Bft) SW 229 6,3 C 6,9 C
18.10.2019 03:36 6,9 C 96 % 1017,0 hPa 0,0 l/m 0,0 km/h (0 Bft) W-SW 238 6,3 C 6,9 C
18.10.2019 03:35 6,9 C 96 % 1017,1 hPa 0,0 l/m 0,0 km/h (0 Bft) SW 234 6,3 C 6,9 C
18.10.2019 03:34 6,9 C 96 % 1017,1 hPa 0,0 l/m 0,0 km/h (0 Bft) SW 225 6,3 C 6,9 C
18.10.2019 03:33 6,9 C 96 % 1017,0 hPa 0,0 l/m 0,0 km/h (0 Bft) SW 225 6,3 C 6,9 C
18.10.2019 03:32 6,9 C 96 % 1017,0 hPa 0,0 l/m 0,0 km/h (0 Bft) SW 225 6,3 C 6,9 C
18.10.2019 03:31 6,9 C 96 % 1017,0 hPa 0,0 l/m 0,0 km/h (0 Bft) SW 225 6,3 C 6,9 C
18.10.2019 03:30 6,9 C 96 % 1017,1 hPa 0,0 l/m 0,0 km/h (0 Bft) SW 225 6,3 C 6,9 C
18.10.2019 03:29 6,9 C 96 % 1017,1 hPa 0,0 l/m 0,0 km/h (0 Bft) SW 220 6,3 C 6,9 C
18.10.2019 03:28 6,9 C 96 % 1017,1 hPa 0,0 l/m 1,7 km/h (1 Bft) SW 222 6,3 C 6,9 C
18.10.2019 03:27 6,9 C 96 % 1017,1 hPa 0,0 l/m 0,0 km/h (0 Bft) SW 228 6,3 C 6,9 C
18.10.2019 03:26 6,9 C 96 % 1017,1 hPa 0,0 l/m 0,0 km/h (0 Bft) SW 218 6,3 C 6,9 C
18.10.2019 03:25 6,9 C 96 % 1017,1 hPa 0,0 l/m 0,0 km/h (0 Bft) SW 221 6,3 C 6,9 C
18.10.2019 03:24 6,9 C 96 % 1017,0 hPa 0,0 l/m 0,0 km/h (0 Bft) SW 216 6,3 C 6,9 C
18.10.2019 03:23 6,9 C 96 % 1017,1 hPa 0,0 l/m 0,0 km/h (0 Bft) SW 217 6,3 C 6,9 C
18.10.2019 03:22 6,9 C 96 % 1017,1 hPa 0,0 l/m 0,0 km/h (0 Bft) W-SW 242 6,3 C 6,9 C
18.10.2019 03:21 7,0 C 96 % 1017,0 hPa 0,0 l/m 0,0 km/h (0 Bft) W-SW 242 6,4 C 7,0 C
18.10.2019 03:20 7,0 C 96 % 1017,1 hPa 0,0 l/m 0,0 km/h (0 Bft) W-SW 242 6,4 C 7,0 C
18.10.2019 03:19 7,0 C 96 % 1017,0 hPa 0,0 l/m 0,0 km/h (0 Bft) W-SW 242 6,4 C 7,0 C
18.10.2019 03:18 7,0 C 96 % 1017,1 hPa 0,0 l/m 0,0 km/h (0 Bft) W-SW 242 6,4 C 7,0 C
18.10.2019 03:17 6,9 C 96 % 1017,1 hPa 0,0 l/m 0,0 km/h (0 Bft) W-SW 242 6,3 C 6,9 C
18.10.2019 03:16 6,9 C 96 % 1017,1 hPa 0,0 l/m 0,0 km/h (0 Bft) W-SW 242 6,3 C 6,9 C
18.10.2019 03:15 6,9 C 96 % 1017,1 hPa 0,0 l/m 0,0 km/h (0 Bft) W-SW 242 6,3 C 6,9 C
18.10.2019 03:14 6,9 C 96 % 1017,1 hPa 0,0 l/m 0,0 km/h (0 Bft) W-SW 242 6,3 C 6,9 C
18.10.2019 03:13 6,9 C 96 % 1017,2 hPa 0,0 l/m 0,0 km/h (0 Bft) W-SW 242 6,3 C 6,9 C
18.10.2019 03:12 6,9 C 96 % 1017,1 hPa 0,0 l/m 0,0 km/h (0 Bft) W-SW 244 6,3 C 6,9 C
18.10.2019 03:11 6,9 C 96 % 1017,1 hPa 0,0 l/m 0,0 km/h (0 Bft) W-SW 244 6,3 C 6,9 C
18.10.2019 03:10 6,9 C 96 % 1017,1 hPa 0,0 l/m 0,0 km/h (0 Bft) W-SW 244 6,3 C 6,9 C
18.10.2019 03:09 6,9 C 96 % 1017,1 hPa 0,0 l/m 0,0 km/h (0 Bft) W-SW 249 6,3 C 6,9 C
18.10.2019 03:08 6,9 C 95 % 1017,1 hPa 0,0 l/m 0,0 km/h (0 Bft) W-SW 250 6,2 C 6,9 C
18.10.2019 03:07 6,9 C 96 % 1017,1 hPa 0,0 l/m 0,0 km/h (0 Bft) W-SW 248 6,3 C 6,9 C
18.10.2019 03:06 6,9 C 95 % 1017,1 hPa 0,0 l/m 0,0 km/h (0 Bft) W-SW 248 6,2 C 6,9 C
18.10.2019 03:05 6,9 C 95 % 1017,1 hPa 0,0 l/m 0,0 km/h (0 Bft) W-SW 250 6,2 C 6,9 C
18.10.2019 03:04 6,9 C 95 % 1017,1 hPa 0,0 l/m 0,0 km/h (0 Bft) W-SW 242 6,2 C 6,9 C
18.10.2019 03:03 6,9 C 95 % 1017,1 hPa 0,0 l/m 0,0 km/h (0 Bft) W-SW 240 6,2 C 6,9 C
18.10.2019 03:02 6,8 C 95 % 1017,1 hPa 0,0 l/m 0,0 km/h (0 Bft) W-SW 242 6,1 C 6,8 C
18.10.2019 03:01 6,8 C 95 % 1017,1 hPa 0,0 l/m 0,0 km/h (0 Bft) W-SW 253 6,1 C 6,8 C
18.10.2019 03:00 6,9 C 95 % 1017,1 hPa 0,0 l/m 0,0 km/h (0 Bft) W-SW 253 6,2 C 6,9 C
18.10.2019 02:59 6,9 C 95 % 1017,1 hPa 0,0 l/m 0,0 km/h (0 Bft) W-SW 250 6,2 C 6,9 C
18.10.2019 02:58 6,9 C 95 % 1017,2 hPa 0,0 l/m 0,0 km/h (0 Bft) W-SW 250 6,2 C 6,9 C
18.10.2019 02:57 6,9 C 95 % 1017,1 hPa 0,0 l/m 0,0 km/h (0 Bft) W-SW 250 6,2 C 6,9 C
18.10.2019 02:56 6,9 C 95 % 1017,2 hPa 0,0 l/m 0,0 km/h (0 Bft) W-SW 250 6,2 C 6,9 C
18.10.2019 02:55 6,9 C 95 % 1017,1 hPa 0,0 l/m 0,0 km/h (0 Bft) W-SW 252 6,2 C 6,9 C
18.10.2019 02:54 7,0 C 95 % 1017,1 hPa 0,0 l/m 0,0 km/h (0 Bft) W-SW 252 6,3 C 7,0 C
18.10.2019 02:53 7,0 C 95 % 1017,2 hPa 0,0 l/m 0,0 km/h (0 Bft) W 265 6,3 C 7,0 C
18.10.2019 02:52 7,0 C 95 % 1017,2 hPa 0,0 l/m 0,0 km/h (0 Bft) W 266 6,3 C 7,0 C
18.10.2019 02:51 7,0 C 95 % 1017,1 hPa 0,0 l/m 0,0 km/h (0 Bft) W 272 6,3 C 7,0 C
18.10.2019 02:50 7,0 C 95 % 1017,1 hPa 0,0 l/m 0,0 km/h (0 Bft) W-SW 243 6,3 C 7,0 C
18.10.2019 02:49 7,0 C 95 % 1017,2 hPa 0,0 l/m 0,0 km/h (0 Bft) W-SW 243 6,3 C 7,0 C
18.10.2019 02:48 7,0 C 95 % 1017,2 hPa 0,0 l/m 0,0 km/h (0 Bft) W-SW 245 6,3 C 7,0 C
18.10.2019 02:47 7,0 C 95 % 1017,1 hPa 0,0 l/m 0,0 km/h (0 Bft) W-SW 244 6,3 C 7,0 C
18.10.2019 02:46 7,0 C 95 % 1017,2 hPa 0,0 l/m 0,0 km/h (0 Bft) W-SW 244 6,3 C 7,0 C
18.10.2019 02:45 7,0 C 96 % 1017,1 hPa 0,0 l/m 0,0 km/h (0 Bft) W-SW 242 6,4 C 7,0 C
18.10.2019 02:44 7,0 C 96 % 1017,1 hPa 0,0 l/m 0,0 km/h (0 Bft) W-SW 238 6,4 C 7,0 C
18.10.2019 02:43 7,0 C 96 % 1017,1 hPa 0,0 l/m 0,0 km/h (0 Bft) SW 236 6,4 C 7,0 C
18.10.2019 02:42 7,0 C 95 % 1017,2 hPa 0,0 l/m 0,0 km/h (0 Bft) W-SW 250 6,3 C 7,0 C
18.10.2019 02:41 7,0 C 95 % 1017,2 hPa 0,0 l/m 0,0 km/h (0 Bft) W-SW 253 6,3 C 7,0 C
18.10.2019 02:40 7,0 C 95 % 1017,2 hPa 0,0 l/m 0,0 km/h (0 Bft) W-SW 250 6,3 C 7,0 C
18.10.2019 02:39 7,0 C 95 % 1017,1 hPa 0,0 l/m 0,0 km/h (0 Bft) W-SW 250 6,3 C 7,0 C
18.10.2019 02:38 6,9 C 95 % 1017,2 hPa 0,0 l/m 0,0 km/h (0 Bft) W 259 6,2 C 6,9 C
18.10.2019 02:37 6,9 C 95 % 1017,2 hPa 0,0 l/m 0,0 km/h (0 Bft) W 259 6,2 C 6,9 C
18.10.2019 02:36 6,9 C 95 % 1017,1 hPa 0,0 l/m 0,0 km/h (0 Bft) W 263 6,2 C 6,9 C
18.10.2019 02:35 6,9 C 95 % 1017,2 hPa 0,0 l/m 0,0 km/h (0 Bft) W 263 6,2 C 6,9 C
18.10.2019 02:34 6,9 C 95 % 1017,1 hPa 0,0 l/m 0,0 km/h (0 Bft) W 264 6,2 C 6,9 C
18.10.2019 02:33 6,9 C 95 % 1017,1 hPa 0,0 l/m 0,0 km/h (0 Bft) W 264 6,2 C 6,9 C
18.10.2019 02:32 6,9 C 95 % 1017,1 hPa 0,0 l/m 0,0 km/h (0 Bft) W 269 6,2 C 6,9 C
18.10.2019 02:31 6,9 C 95 % 1017,2 hPa 0,0 l/m 0,0 km/h (0 Bft) W 269 6,2 C 6,9 C
18.10.2019 02:30 6,9 C 95 % 1017,2 hPa 0,0 l/m 0,0 km/h (0 Bft) W 269 6,2 C 6,9 C
18.10.2019 02:29 6,9 C 95 % 1017,2 hPa 0,0 l/m 0,0 km/h (0 Bft) W 269 6,2 C 6,9 C
18.10.2019 02:28 6,9 C 95 % 1017,1 hPa 0,0 l/m 0,0 km/h (0 Bft) W 269 6,2 C 6,9 C
18.10.2019 02:27 6,9 C 95 % 1017,1 hPa 0,0 l/m 0,0 km/h (0 Bft) W 268 6,2 C 6,9 C
18.10.2019 02:26 6,9 C 95 % 1017,2 hPa 0,0 l/m 0,0 km/h (0 Bft) W 269 6,2 C 6,9 C
18.10.2019 02:25 6,9 C 95 % 1017,2 hPa 0,0 l/m 0,0 km/h (0 Bft) W 276 6,2 C 6,9 C
18.10.2019 02:24 6,9 C 95 % 1017,2 hPa 0,0 l/m 0,0 km/h (0 Bft) W 276 6,2 C 6,9 C
18.10.2019 02:23 6,9 C 95 % 1017,2 hPa 0,0 l/m 0,0 km/h (0 Bft) W 275 6,2 C 6,9 C
18.10.2019 02:22 6,9 C 95 % 1017,2 hPa 0,0 l/m 0,0 km/h (0 Bft) W 274 6,2 C 6,9 C
18.10.2019 02:21 6,9 C 95 % 1017,3 hPa 0,0 l/m 0,0 km/h (0 Bft) W 274 6,2 C 6,9 C
18.10.2019 02:20 6,9 C 95 % 1017,2 hPa 0,0 l/m 0,0 km/h (0 Bft) W-NW 282 6,2 C 6,9 C
18.10.2019 02:19 6,9 C 95 % 1017,3 hPa 0,0 l/m 0,0 km/h (0 Bft) W-SW 245 6,2 C 6,9 C
18.10.2019 02:18 6,9 C 95 % 1017,2 hPa 0,0 l/m 0,0 km/h (0 Bft) W-SW 243 6,2 C 6,9 C
18.10.2019 02:17 6,9 C 95 % 1017,2 hPa 0,0 l/m 0,0 km/h (0 Bft) W-SW 242 6,2 C 6,9 C
18.10.2019 02:16 7,0 C 95 % 1017,2 hPa 0,0 l/m 0,0 km/h (0 Bft) W-SW 246 6,3 C 7,0 C
18.10.2019 02:15 7,0 C 95 % 1017,2 hPa 0,0 l/m 0,0 km/h (0 Bft) W-SW 247 6,3 C 7,0 C
18.10.2019 02:14 7,0 C 95 % 1017,2 hPa 0,0 l/m 0,0 km/h (0 Bft) W-SW 247 6,3 C 7,0 C
18.10.2019 02:13 7,0 C 95 % 1017,2 hPa 0,0 l/m 0,0 km/h (0 Bft) W-SW 247 6,3 C 7,0 C
18.10.2019 02:12 7,0 C 95 % 1017,2 hPa 0,0 l/m 0,0 km/h (0 Bft) W-SW 247 6,3 C 7,0 C
18.10.2019 02:11 7,0 C 94 % 1017,2 hPa 0,0 l/m 0,0 km/h (0 Bft) W-SW 248 6,1 C 7,0 C
18.10.2019 02:10 7,0 C 94 % 1017,2 hPa 0,0 l/m 0,0 km/h (0 Bft) W-SW 238 6,1 C 7,0 C
18.10.2019 02:09 7,0 C 94 % 1017,2 hPa 0,0 l/m 0,0 km/h (0 Bft) W-SW 238 6,1 C 7,0 C
18.10.2019 02:08 7,0 C 94 % 1017,3 hPa 0,0 l/m 0,0 km/h (0 Bft) W-SW 247 6,1 C 7,0 C
18.10.2019 02:07 7,0 C 94 % 1017,2 hPa 0,0 l/m 0,0 km/h (0 Bft) W-SW 248 6,1 C 7,0 C
18.10.2019 02:06 7,1 C 94 % 1017,2 hPa 0,0 l/m 0,0 km/h (0 Bft) W-SW 247 6,2 C 7,1 C
18.10.2019 02:05 7,1 C 94 % 1017,2 hPa 0,0 l/m 0,0 km/h (0 Bft) W-SW 247 6,2 C 7,1 C
18.10.2019 02:04 7,1 C 94 % 1017,2 hPa 0,0 l/m 0,0 km/h (0 Bft) W-SW 247 6,2 C 7,1 C
18.10.2019 02:03 7,1 C 94 % 1017,2 hPa 0,0 l/m 0,0 km/h (0 Bft) W-SW 247 6,2 C 7,1 C
18.10.2019 02:02 7,2 C 94 % 1017,2 hPa 0,0 l/m 0,0 km/h (0 Bft) W-SW 247 6,3 C 7,2 C
18.10.2019 02:01 7,2 C 95 % 1017,2 hPa 0,0 l/m 0,0 km/h (0 Bft) W-SW 247 6,5 C 7,2 C
18.10.2019 02:00 7,3 C 95 % 1017,2 hPa 0,0 l/m 0,0 km/h (0 Bft) W-SW 247 6,6 C 7,3 C
18.10.2019 01:59 7,3 C 95 % 1017,2 hPa 0,0 l/m 0,0 km/h (0 Bft) W-SW 247 6,6 C 7,3 C
18.10.2019 01:58 7,3 C 95 % 1017,1 hPa 0,0 l/m 0,0 km/h (0 Bft) W-SW 247 6,6 C 7,3 C
18.10.2019 01:57 7,3 C 95 % 1017,1 hPa 0,0 l/m 0,0 km/h (0 Bft) W-SW 247 6,6 C 7,3 C
18.10.2019 01:56 7,3 C 95 % 1017,1 hPa 0,0 l/m 0,0 km/h (0 Bft) W-SW 247 6,6 C 7,3 C
18.10.2019 01:55 7,3 C 95 % 1017,2 hPa 0,0 l/m 0,0 km/h (0 Bft) W-SW 258 6,6 C 7,3 C
18.10.2019 01:54 7,3 C 95 % 1017,1 hPa 0,0 l/m 0,0 km/h (0 Bft) W 263 6,6 C 7,3 C
18.10.2019 01:53 7,3 C 95 % 1017,1 hPa 0,0 l/m 0,0 km/h (0 Bft) W 263 6,6 C 7,3 C
18.10.2019 01:52 7,3 C 95 % 1017,1 hPa 0,0 l/m 0,0 km/h (0 Bft) W 271 6,6 C 7,3 C
18.10.2019 01:51 7,3 C 95 % 1017,1 hPa 0,0 l/m 0,0 km/h (0 Bft) W 270 6,6 C 7,3 C
18.10.2019 01:50 7,3 C 95 % 1017,1 hPa 0,0 l/m 0,0 km/h (0 Bft) W 271 6,6 C 7,3 C
18.10.2019 01:49 7,3 C 94 % 1017,1 hPa 0,0 l/m 0,0 km/h (0 Bft) W 270 6,4 C 7,3 C
18.10.2019 01:48 7,3 C 94 % 1017,0 hPa 0,0 l/m 0,0 km/h (0 Bft) W 271 6,4 C 7,3 C
18.10.2019 01:47 7,2 C 94 % 1017,0 hPa 0,0 l/m 0,0 km/h (0 Bft) W 271 6,3 C 7,2 C
18.10.2019 01:46 7,2 C 94 % 1017,0 hPa 0,0 l/m 0,0 km/h (0 Bft) W 271 6,3 C 7,2 C
18.10.2019 01:45 7,3 C 94 % 1017,0 hPa 0,0 l/m 0,0 km/h (0 Bft) W 271 6,4 C 7,3 C
18.10.2019 01:44 7,3 C 94 % 1017,0 hPa 0,0 l/m 0,0 km/h (0 Bft) W 271 6,4 C 7,3 C
18.10.2019 01:43 7,3 C 94 % 1017,0 hPa 0,0 l/m 0,0 km/h (0 Bft) W 271 6,4 C 7,3 C
18.10.2019 01:42 7,3 C 94 % 1017,0 hPa 0,0 l/m 0,0 km/h (0 Bft) W 272 6,4 C 7,3 C
18.10.2019 01:41 7,4 C 94 % 1016,9 hPa 0,0 l/m 0,0 km/h (0 Bft) W 277 6,5 C 7,4 C
18.10.2019 01:40 7,4 C 94 % 1016,9 hPa 0,0 l/m 0,0 km/h (0 Bft) W 279 6,5 C 7,4 C
18.10.2019 01:39 7,4 C 94 % 1016,9 hPa 0,0 l/m 0,0 km/h (0 Bft) W 279 6,5 C 7,4 C
18.10.2019 01:38 7,4 C 94 % 1016,9 hPa 0,0 l/m 0,0 km/h (0 Bft) W 279 6,5 C 7,4 C
18.10.2019 01:37 7,4 C 94 % 1016,9 hPa 0,0 l/m 0,0 km/h (0 Bft) W 279 6,5 C 7,4 C
18.10.2019 01:36 7,4 C 94 % 1016,8 hPa 0,0 l/m 0,0 km/h (0 Bft) W 279 6,5 C 7,4 C
18.10.2019 01:35 7,4 C 94 % 1016,8 hPa 0,0 l/m 0,0 km/h (0 Bft) W 279 6,5 C 7,4 C
18.10.2019 01:34 7,5 C 94 % 1016,8 hPa 0,0 l/m 0,0 km/h (0 Bft) W 279 6,6 C 7,5 C
18.10.2019 01:33 7,5 C 94 % 1016,8 hPa 0,0 l/m 0,0 km/h (0 Bft) W 279 6,6 C 7,5 C
18.10.2019 01:32 7,5 C 94 % 1016,7 hPa 0,0 l/m 0,0 km/h (0 Bft) W 279 6,6 C 7,5 C
18.10.2019 01:31 7,5 C 94 % 1016,8 hPa 0,0 l/m 0,0 km/h (0 Bft) W 279 6,6 C 7,5 C
18.10.2019 01:30 7,6 C 94 % 1016,7 hPa 0,0 l/m 0,0 km/h (0 Bft) W 279 6,7 C 7,6 C
18.10.2019 01:29 7,6 C 94 % 1016,8 hPa 0,0 l/m 0,0 km/h (0 Bft) W 279 6,7 C 7,6 C
18.10.2019 01:28 7,6 C 93 % 1016,8 hPa 0,0 l/m 0,0 km/h (0 Bft) W 279 6,5 C 7,6 C
18.10.2019 01:27 7,6 C 93 % 1016,8 hPa 0,0 l/m 0,0 km/h (0 Bft) W 279 6,5 C 7,6 C
18.10.2019 01:26 7,7 C 93 % 1016,8 hPa 0,0 l/m 0,0 km/h (0 Bft) W 279 6,6 C 7,7 C
18.10.2019 01:25 7,8 C 93 % 1016,8 hPa 0,0 l/m 0,0 km/h (0 Bft) W-NW 282 6,7 C 7,8 C
18.10.2019 01:24 7,8 C 93 % 1016,8 hPa 0,0 l/m 0,0 km/h (0 Bft) W-NW 301 6,7 C 7,8 C
18.10.2019 01:23 7,9 C 93 % 1016,8 hPa 0,0 l/m 0,0 km/h (0 Bft) W-NW 301 6,8 C 7,9 C
18.10.2019 01:22 7,9 C 94 % 1016,8 hPa 0,0 l/m 0,0 km/h (0 Bft) N-NW 328 7,0 C 7,9 C
18.10.2019 01:21 7,9 C 94 % 1016,7 hPa 0,0 l/m 0,0 km/h (0 Bft) N-NW 336 7,0 C 7,9 C
18.10.2019 01:20 7,9 C 94 % 1016,7 hPa 0,0 l/m 0,0 km/h (0 Bft) N-NW 344 7,0 C 7,9 C
18.10.2019 01:19 8,0 C 94 % 1016,7 hPa 0,0 l/m 0,0 km/h (0 Bft) N-NW 344 7,1 C 8,0 C
18.10.2019 01:18 8,0 C 94 % 1016,7 hPa 0,0 l/m 0,0 km/h (0 Bft) N-NW 344 7,1 C 8,0 C
18.10.2019 01:17 8,0 C 94 % 1016,7 hPa 0,0 l/m 0,0 km/h (0 Bft) N-NW 344 7,1 C 8,0 C
18.10.2019 01:16 8,0 C 94 % 1016,7 hPa 0,0 l/m 0,0 km/h (0 Bft) N-NW 344 7,1 C 8,0 C
18.10.2019 01:15 7,9 C 94 % 1016,7 hPa 0,0 l/m 0,0 km/h (0 Bft) N-NW 345 7,0 C 7,9 C
18.10.2019 01:14 7,9 C 93 % 1016,7 hPa 0,0 l/m 0,0 km/h (0 Bft) N-NW 345 6,8 C 7,9 C
18.10.2019 01:13 7,9 C 93 % 1016,7 hPa 0,0 l/m 0,0 km/h (0 Bft) N-NW 345 6,8 C 7,9 C
18.10.2019 01:12 7,9 C 93 % 1016,7 hPa 0,0 l/m 0,0 km/h (0 Bft) N-NW 345 6,8 C 7,9 C
18.10.2019 01:11 7,9 C 93 % 1016,6 hPa 0,0 l/m 0,0 km/h (0 Bft) N-NW 345 6,8 C 7,9 C
18.10.2019 01:10 7,9 C 93 % 1016,7 hPa 0,0 l/m 0,0 km/h (0 Bft) N-NW 345 6,8 C 7,9 C
18.10.2019 01:09 7,9 C 93 % 1016,7 hPa 0,0 l/m 0,0 km/h (0 Bft) N-NW 345 6,8 C 7,9 C
18.10.2019 01:08 8,0 C 93 % 1016,6 hPa 0,0 l/m 0,0 km/h (0 Bft) N-NW 345 6,9 C 8,0 C
18.10.2019 01:07 8,0 C 93 % 1016,7 hPa 0,0 l/m 0,0 km/h (0 Bft) N-NW 345 6,9 C 8,0 C
18.10.2019 01:06 8,1 C 93 % 1016,6 hPa 0,0 l/m 0,0 km/h (0 Bft) N-NW 345 7,0 C 8,1 C
18.10.2019 01:05 8,1 C 93 % 1016,6 hPa 0,0 l/m 0,0 km/h (0 Bft) N-NW 345 7,0 C 8,1 C
18.10.2019 01:04 8,1 C 93 % 1016,6 hPa 0,0 l/m 0,0 km/h (0 Bft) N-NW 345 7,0 C 8,1 C
18.10.2019 01:03 8,2 C 93 % 1016,6 hPa 0,0 l/m 0,0 km/h (0 Bft) N-NW 345 7,1 C 8,2 C
18.10.2019 01:02 8,3 C 93 % 1016,6 hPa 0,0 l/m 0,0 km/h (0 Bft) N-NW 345 7,2 C 8,3 C
18.10.2019 01:01 8,4 C 93 % 1016,6 hPa 0,0 l/m 0,0 km/h (0 Bft) N-NW 345 7,3 C 8,4 C
18.10.2019 01:00 8,4 C 93 % 1016,6 hPa 0,0 l/m 0,0 km/h (0 Bft) N-NW 345 7,3 C 8,4 C
18.10.2019 00:59 8,4 C 93 % 1016,6 hPa 0,0 l/m 0,0 km/h (0 Bft) N-NW 345 7,3 C 8,4 C
18.10.2019 00:58 8,5 C 93 % 1016,6 hPa 0,0 l/m 0,0 km/h (0 Bft) N-NW 345 7,4 C 8,5 C
18.10.2019 00:57 8,5 C 93 % 1016,6 hPa 0,0 l/m 0,0 km/h (0 Bft) N-NW 345 7,4 C 8,5 C
18.10.2019 00:56 8,5 C 93 % 1016,6 hPa 0,0 l/m 0,0 km/h (0 Bft) N-NW 345 7,4 C 8,5 C
18.10.2019 00:55 8,5 C 93 % 1016,5 hPa 0,0 l/m 0,0 km/h (0 Bft) N-NW 345 7,4 C 8,5 C
18.10.2019 00:54 8,5 C 93 % 1016,6 hPa 0,0 l/m 0,0 km/h (0 Bft) N-NW 345 7,4 C 8,5 C
18.10.2019 00:53 8,5 C 93 % 1016,6 hPa 0,0 l/m 0,0 km/h (0 Bft) N-NW 345 7,4 C 8,5 C
18.10.2019 00:52 8,6 C 93 % 1016,6 hPa 0,0 l/m 0,0 km/h (0 Bft) N-NW 345 7,5 C 8,6 C
18.10.2019 00:51 8,6 C 93 % 1016,6 hPa 0,0 l/m 0,0 km/h (0 Bft) N-NW 345 7,5 C 8,6 C
18.10.2019 00:50 8,7 C 93 % 1016,6 hPa 0,0 l/m 0,0 km/h (0 Bft) N-NW 345 7,6 C 8,7 C
18.10.2019 00:49 8,7 C 93 % 1016,5 hPa 0,0 l/m 0,0 km/h (0 Bft) N-NW 345 7,6 C 8,7 C
18.10.2019 00:48 8,8 C 93 % 1016,5 hPa 0,0 l/m 0,0 km/h (0 Bft) N-NW 345 7,7 C 8,8 C
18.10.2019 00:46 8,8 C 92 % 1016,5 hPa 0,0 l/m 0,0 km/h (0 Bft) N-NW 345 7,6 C 8,8 C
18.10.2019 00:45 8,8 C 92 % 1016,5 hPa 0,0 l/m 0,0 km/h (0 Bft) N-NW 345 7,6 C 8,8 C
18.10.2019 00:44 8,9 C 92 % 1016,5 hPa 0,0 l/m 0,0 km/h (0 Bft) N-NW 345 7,7 C 8,9 C
18.10.2019 00:43 9,0 C 92 % 1016,6 hPa 0,0 l/m 0,0 km/h (0 Bft) N-NW 346 7,8 C 9,0 C
18.10.2019 00:42 9,0 C 93 % 1016,5 hPa 0,0 l/m 0,0 km/h (0 Bft) N-NW 345 7,9 C 9,0 C
18.10.2019 00:41 9,0 C 93 % 1016,5 hPa 0,0 l/m 0,0 km/h (0 Bft) N-NW 345 7,9 C 9,0 C
18.10.2019 00:40 9,1 C 93 % 1016,5 hPa 0,0 l/m 0,0 km/h (0 Bft) N-NW 345 8,0 C 9,1 C
18.10.2019 00:39 9,1 C 93 % 1016,5 hPa 0,0 l/m 0,0 km/h (0 Bft) N-NW 345 8,0 C 9,1 C
18.10.2019 00:38 9,1 C 93 % 1016,5 hPa 0,0 l/m 0,0 km/h (0 Bft) N-NW 346 8,0 C 9,1 C
18.10.2019 00:37 9,1 C 93 % 1016,5 hPa 0,0 l/m 0,0 km/h (0 Bft) N-NW 345 8,0 C 9,1 C
18.10.2019 00:36 9,2 C 93 % 1016,5 hPa 0,0 l/m 0,0 km/h (0 Bft) N-NW 345 8,1 C 9,2 C
18.10.2019 00:35 9,2 C 93 % 1016,5 hPa 0,0 l/m 0,0 km/h (0 Bft) N-NW 345 8,1 C 9,2 C
18.10.2019 00:34 9,2 C 93 % 1016,5 hPa 0,0 l/m 0,0 km/h (0 Bft) N-NW 345 8,1 C 9,2 C
18.10.2019 00:33 9,2 C 93 % 1016,5 hPa 0,0 l/m 0,0 km/h (0 Bft) N-NW 345 8,1 C 9,2 C
18.10.2019 00:32 9,2 C 93 % 1016,4 hPa 0,0 l/m 0,0 km/h (0 Bft) NW 317 8,1 C 9,2 C
18.10.2019 00:31 9,3 C 93 % 1016,5 hPa 0,0 l/m 0,0 km/h (0 Bft) NW 318 8,2 C 9,3 C
18.10.2019 00:30 9,3 C 93 % 1016,5 hPa 0,0 l/m 0,0 km/h (0 Bft) NW 317 8,2 C 9,3 C
18.10.2019 00:29 9,3 C 93 % 1016,5 hPa 0,0 l/m 0,0 km/h (0 Bft) NW 317 8,2 C 9,3 C
18.10.2019 00:28 9,3 C 93 % 1016,6 hPa 0,0 l/m 0,0 km/h (0 Bft) NW 317 8,2 C 9,3 C
18.10.2019 00:27 9,3 C 93 % 1016,6 hPa 0,0 l/m 0,0 km/h (0 Bft) NW 317 8,2 C 9,3 C
18.10.2019 00:26 9,3 C 93 % 1016,6 hPa 0,0 l/m 0,0 km/h (0 Bft) NW 317 8,2 C 9,3 C
18.10.2019 00:25 9,3 C 93 % 1016,6 hPa 0,0 l/m 0,0 km/h (0 Bft) NW 318 8,2 C 9,3 C
18.10.2019 00:24 9,3 C 93 % 1016,6 hPa 0,0 l/m 0,0 km/h (0 Bft) NW 318 8,2 C 9,3 C
18.10.2019 00:23 9,3 C 93 % 1016,6 hPa 0,0 l/m 0,0 km/h (0 Bft) NW 317 8,2 C 9,3 C
18.10.2019 00:22 9,3 C 93 % 1016,6 hPa 0,0 l/m 0,0 km/h (0 Bft) NW 317 8,2 C 9,3 C
18.10.2019 00:21 9,3 C 93 % 1016,6 hPa 0,0 l/m 0,0 km/h (0 Bft) NW 318 8,2 C 9,3 C
18.10.2019 00:20 9,3 C 93 % 1016,6 hPa 0,0 l/m 0,0 km/h (0 Bft) NW 318 8,2 C 9,3 C
18.10.2019 00:19 9,3 C 93 % 1016,6 hPa 0,0 l/m 0,0 km/h (0 Bft) NW 317 8,2 C 9,3 C
18.10.2019 00:18 9,3 C 93 % 1016,6 hPa 0,0 l/m 0,0 km/h (0 Bft) NW 317 8,2 C 9,3 C
18.10.2019 00:17 9,3 C 93 % 1016,7 hPa 0,0 l/m 0,0 km/h (0 Bft) NW 317 8,2 C 9,3 C
18.10.2019 00:16 9,3 C 93 % 1016,6 hPa 0,0 l/m 0,0 km/h (0 Bft) W-NW 303 8,2 C 9,3 C
18.10.2019 00:15 9,2 C 93 % 1016,6 hPa 0,0 l/m 0,0 km/h (0 Bft) W-NW 303 8,1 C 9,2 C
18.10.2019 00:14 9,2 C 93 % 1016,6 hPa 0,0 l/m 0,0 km/h (0 Bft) W-NW 303 8,1 C 9,2 C
18.10.2019 00:13 9,2 C 93 % 1016,6 hPa 0,0 l/m 0,0 km/h (0 Bft) W-NW 303 8,1 C 9,2 C
18.10.2019 00:12 9,1 C 93 % 1016,6 hPa 0,0 l/m 0,0 km/h (0 Bft) W-NW 303 8,0 C 9,1 C
18.10.2019 00:11 9,1 C 92 % 1016,6 hPa 0,0 l/m 0,0 km/h (0 Bft) W-NW 303 7,9 C 9,1 C
18.10.2019 00:10 9,2 C 92 % 1016,5 hPa 0,0 l/m 0,0 km/h (0 Bft) W-NW 303 8,0 C 9,2 C
18.10.2019 00:09 9,2 C 92 % 1016,5 hPa 0,0 l/m 0,0 km/h (0 Bft) W-NW 303 8,0 C 9,2 C
18.10.2019 00:08 9,3 C 92 % 1016,6 hPa 0,0 l/m 0,0 km/h (0 Bft) W-NW 303 8,1 C 9,3 C
18.10.2019 00:07 9,3 C 93 % 1016,5 hPa 0,0 l/m 0,0 km/h (0 Bft) W-NW 303 8,2 C 9,3 C
18.10.2019 00:06 9,3 C 92 % 1016,6 hPa 0,0 l/m 0,0 km/h (0 Bft) W-NW 303 8,1 C 9,3 C
18.10.2019 00:05 9,3 C 92 % 1016,6 hPa 0,0 l/m 0,0 km/h (0 Bft) W-NW 303 8,1 C 9,3 C
18.10.2019 00:04 9,3 C 92 % 1016,5 hPa 0,0 l/m 0,0 km/h (0 Bft) W-NW 303 8,1 C 9,3 C
18.10.2019 00:03 9,3 C 92 % 1016,5 hPa 0,0 l/m 0,0 km/h (0 Bft) W-NW 303 8,1 C 9,3 C
18.10.2019 00:02 9,4 C 93 % 1016,5 hPa 0,0 l/m 0,0 km/h (0 Bft) W-NW 303 8,3 C 9,4 C
18.10.2019 00:01 9,3 C 93 % 1016,5 hPa 0,0 l/m 0,0 km/h (0 Bft) W-NW 303 8,2 C 9,3 C
18.10.2019 00:00 9,4 C 92 % 1016,5 hPa 0,0 l/m 0,0 km/h (0 Bft) W-NW 303 8,2 C 9,4 C
_ Min-Zeit 05:53 00:00 00:32 - 00:00 - - 05:53 05:53
Minimum _ 5,7 C 92 % 1016,4 hPa - 0,0 km/h (0 Bft) - - 5,1 C 5,7 C
_ Max-Zeit 00:00 07:45 09:11 04:55 09:47 - - 10:59 00:00
Maximum _ 9,4 C 97 % 1018,2 hPa 0,2 l/m 4,8 km/h
O (1 Bft)
- - 8,4 C 9,4 C
Durchschnitt _ 7,2 C 96 % 1017,3 hPa #0,2 l/m 0,1 km/h (0 Bft) SO - 6,6 C 7,2 C